Observation data for Hackberry on 01/19/2019      Previous  Date  Next       Current Mesonet Observations  Soil Data  Daily Summary Page  Observations in Plain Language
KHA3 190600Z 34025KT 04/M02 A2998 RMK A01 T00401018  RH  066%=      5-min Rain = 0
KHA3 190601Z 35024G31KT 04/M02 A2998 RMK A01 T00401018  RH  066%=      5-min Rain = 0
KHA3 190602Z 34024KT 04/M02 A2998 RMK A01 T00401018  RH  066%=      5-min Rain = 0
KHA3 190603Z 34022KT 04/M02 A2998 RMK A01 T00401018  RH  066%=      5-min Rain = 0
KHA3 190604Z 34018G23KT 04/M02 A2998 RMK A01 T00401017  RH  067%=      5-min Rain = 0
KHA3 190605Z 34021KT 04/M02 A2998 RMK A01 T00401016  RH  067%=      5-min Rain = 0
KHA3 190606Z 33021G26KT 04/M02 A2998 RMK A01 T00391016  RH  067%=      5-min Rain = 0
KHA3 190607Z 32025G30KT 04/M02 A2998 RMK A01 T00391016  RH  067%=      5-min Rain = 0
KHA3 190608Z 33026G32KT 04/M02 A2998 RMK A01 T00381016  RH  067%=      5-min Rain = 0
KHA3 190609Z 33022G27KT 04/M02 A2999 RMK A01 T00381016  RH  068%=      5-min Rain = 0
KHA3 190610Z 33025G32KT 04/M02 A2999 RMK A01 T00371016  RH  068%=      5-min Rain = 0
KHA3 190611Z 34025KT 04/M02 A2999 RMK A01 T00371016  RH  068%=      5-min Rain = 0
KHA3 190612Z 34024G31KT 04/M02 A2999 RMK A01 T00371016  RH  068%=      5-min Rain = 0
KHA3 190613Z 34025G33KT 04/M02 A2999 RMK A01 T00371016  RH  069%=      5-min Rain = 0
KHA3 190614Z 34031KT 04/M02 A2999 RMK A01 T00371016  RH  068%=      5-min Rain = 0
KHA3 190615Z 35029KT 04/M02 A2999 RMK A01 T00371017  RH  068%=      5-min Rain = 0
KHA3 190616Z 35026KT 04/M02 A2999 RMK A01 T00371017  RH  068%=      5-min Rain = 0
KHA3 190617Z 35025KT 04/M02 A2999 RMK A01 T00361016  RH  068%=      5-min Rain = 0
KHA3 190618Z 34024KT 04/M02 A2999 RMK A01 T00361016  RH  069%=      5-min Rain = 0
KHA3 190619Z 34020KT 04/M02 A2999 RMK A01 T00361016  RH  069%=      5-min Rain = 0
KHA3 190620Z 34022KT 04/M02 A30 RMK A01 T00351015  RH  070%=      5-min Rain = 0
KHA3 190621Z 33023KT 04/M02 A30 RMK A01 T00351015  RH  070%=      5-min Rain = 0
KHA3 190622Z 33020G27KT 03/M01 A30 RMK A01 T00331014  RH  071%=      5-min Rain = 0
KHA3 190623Z 33025KT 03/M01 A30 RMK A01 T00331013  RH  072%=      5-min Rain = 0
KHA3 190624Z 34024G30KT 03/M01 A30 RMK A01 T00311013  RH  073%=      5-min Rain = 0
KHA3 190625Z 33025G33KT 03/M01 A30 RMK A01 T00311012  RH  073%=      5-min Rain = 0
KHA3 190626Z 33027G33KT 03/M01 A30 RMK A01 T00301012  RH  074%=      5-min Rain = 0
KHA3 190627Z 33024KT 03/M01 A30 RMK A01 T00291012  RH  074%=      5-min Rain = 0
KHA3 190628Z 33021KT 03/M01 A30 RMK A01 T00291010  RH  075%=      5-min Rain = 0
KHA3 190629Z 33027G32KT 03/M01 A30 RMK A01 T00291010  RH  076%=      5-min Rain = 0
KHA3 190630Z 33023KT 03/M01 A30 RMK A01 T00281010  RH  076%=      5-min Rain = 0
KHA3 190631Z 33022KT 03/M01 A30 RMK A01 T00281009  RH  077%=      5-min Rain = 0
KHA3 190632Z 33021G27KT 03/M01 A3001 RMK A01 T00281009  RH  077%=      5-min Rain = 0
KHA3 190633Z 33021KT 03/M01 A3001 RMK A01 T00271009  RH  077%=      5-min Rain = 0
KHA3 190634Z 33021KT 03/M01 A3001 RMK A01 T00271008  RH  078%=      5-min Rain = 0
KHA3 190635Z 33020KT 03/M01 A3001 RMK A01 T00261008  RH  078%=      5-min Rain = 0
KHA3 190636Z 33022G27KT 03/M01 A3001 RMK A01 T00261008  RH  079%=      5-min Rain = 0
KHA3 190637Z 33021G26KT 03/M01 A3001 RMK A01 T00261008  RH  079%=      5-min Rain = 0
KHA3 190638Z 34021G27KT 03/M01 A3001 RMK A01 T00251007  RH  079%=      5-min Rain = 0
KHA3 190639Z 33020G29KT 02/M01 A3001 RMK A01 T00241007  RH  080%=      5-min Rain = 0
KHA3 190640Z 34025G31KT 02/M01 A3001 RMK A01 T00241006  RH  081%=      5-min Rain = 0
KHA3 190641Z 34022KT 02/M01 A3001 RMK A01 T00231006  RH  082%=      5-min Rain = 0
KHA3 190642Z 34023KT 02/M01 A3001 RMK A01 T00221005  RH  083%=      5-min Rain = 0
KHA3 190643Z 34025KT 02/M00 A3002 RMK A01 T00211004  RH  084%=      5-min Rain = 0
KHA3 190644Z 34024KT 02/M00 A3002 RMK A01 T00201003  RH  085%=      5-min Rain = 0
KHA3 190645Z 34020G25KT 02/M00 A3002 RMK A01 T00201002  RH  085%=      5-min Rain = 0
KHA3 190646Z 33017KT 02/M00 A3002 RMK A01 T00191002  RH  086%=      5-min Rain = 0
KHA3 190647Z 33018KT 02/M00 A3002 RMK A01 T00191001  RH  087%=      5-min Rain = 0
KHA3 190648Z 33018G23KT 02/00 A3002 RMK A01 T001900-0  RH  087%=      5-min Rain = 0
KHA3 190649Z 33019KT 02/M00 A3002 RMK A01 T00171001  RH  088%=      5-min Rain = 0
KHA3 190650Z 33021KT 01/M00 A3002 RMK A01 T00141001  RH  089%=      5-min Rain = 0
KHA3 190651Z 32019KT 01/M00 A3002 RMK A01 T00121002  RH  091%=      5-min Rain = 0
KHA3 190652Z 33019KT 01/M00 A3002 RMK A01 T00101001  RH  092%=      5-min Rain = 0
KHA3 190653Z 33017KT 01/M00 A3002 RMK A01 T00091001  RH  093%=      5-min Rain = 0
KHA3 190654Z 32017KT 01/M00 A3002 RMK A01 T00071002  RH  094%=      5-min Rain = 0
KHA3 190655Z 33016G21KT 01/M00 A3002 RMK A01 T00061002  RH  095%=      5-min Rain = 0
KHA3 190656Z 33017KT 01/M00 A3002 RMK A01 T00061001  RH  095%=      5-min Rain = 0
KHA3 190657Z 32017KT 01/M00 A3003 RMK A01 T00051001  RH  095%=      5-min Rain = 0
KHA3 190658Z 33017KT 01/M00 A3002 RMK A01 T00051001  RH  096%=      5-min Rain = 0
KHA3 190659Z 33018KT 01/M00 A3003 RMK A01 T00051001  RH  096%=      5-min Rain = 0
KHA3 190700Z 34017KT 01/M00 A3003 RMK A01 T00051001  RH  096%=      5-min Rain = 0
KHA3 190701Z 33019KT 00/M00 A3003 RMK A01 T00041001  RH  096%=      5-min Rain = 0
KHA3 190702Z 34020G28KT 01/M00 A3003 RMK A01 T00051001  RH  096%=      5-min Rain = 0
KHA3 190703Z 34023KT 01/M00 A3003 RMK A01 T00051001  RH  096%=      5-min Rain = 0
KHA3 190704Z 34020KT 01/M00 A3003 RMK A01 T00051001  RH  096%=      5-min Rain = 0
KHA3 190705Z 33018KT 01/M00 A3003 RMK A01 T00051001  RH  095%=      5-min Rain = 0
KHA3 190706Z 33021KT 01/M00 A3003 RMK A01 T00051002  RH  095%=      5-min Rain = 0
KHA3 190707Z 34021KT 01/M00 A3003 RMK A01 T00051002  RH  095%=      5-min Rain = 0
KHA3 190708Z 34021KT 01/M00 A3003 RMK A01 T00061002  RH  095%=      5-min Rain = 0
KHA3 190709Z 34021G26KT 01/M00 A3003 RMK A01 T00061002  RH  095%=      5-min Rain = 0
KHA3 190710Z 34019KT 01/M00 A3003 RMK A01 T00061002  RH  095%=      5-min Rain = 0
KHA3 190711Z 34020KT 01/M00 A3003 RMK A01 T00051002  RH  095%=      5-min Rain = 0
KHA3 190712Z 34020KT 01/M00 A3003 RMK A01 T00051002  RH  095%=      5-min Rain = 0
KHA3 190713Z 34015KT 00/M00 A3003 RMK A01 T00041002  RH  096%=      5-min Rain = 0
KHA3 190714Z 34016KT 00/M00 A3003 RMK A01 T00041002  RH  096%=      5-min Rain = 0
KHA3 190715Z 34014KT 00/M00 A3003 RMK A01 T00031002  RH  096%=      5-min Rain = 0
KHA3 190716Z 34016KT 00/M00 A3003 RMK A01 T00031002  RH  096%=      5-min Rain = 0
KHA3 190717Z 34015KT 00/M00 A3003 RMK A01 T00031002  RH  097%=      5-min Rain = 0
KHA3 190718Z 34014KT 00/M00 A3003 RMK A01 T00031001  RH  097%=      5-min Rain = 0
KHA3 190719Z 33013KT 00/M00 A3003 RMK A01 T00031001  RH  097%=      5-min Rain = 0
KHA3 190720Z 33013KT 00/M00 A3003 RMK A01 T00031001  RH  097%=      5-min Rain = 0
KHA3 190721Z 33011KT 00/M00 A3003 RMK A01 T00031001  RH  097%=      5-min Rain = 0
KHA3 190722Z 33010KT 00/M00 A3003 RMK A01 T00031001  RH  097%=      5-min Rain = 0
KHA3 190723Z 33012KT 00/M00 A3003 RMK A01 T00031001  RH  097%=      5-min Rain = 0
KHA3 190724Z 33013KT 00/00 A3003 RMK A01 T000400-0  RH  097%=      5-min Rain = 0
KHA3 190725Z 32014KT 00/00 A3004 RMK A01 T000400-0  RH  097%=      5-min Rain = 0
KHA3 190726Z 32013KT 01/00 A3004 RMK A01 T000500-0  RH  097%=      5-min Rain = 0
KHA3 190727Z 32013KT 01/00 A3004 RMK A01 T00050000  RH  097%=      5-min Rain = 0
KHA3 190728Z 33014KT 01/00 A3004 RMK A01 T00050000  RH  097%=      5-min Rain = 0
KHA3 190729Z 33015KT 01/00 A3004 RMK A01 T00060001  RH  096%=      5-min Rain = 0
KHA3 190730Z 33016KT 01/00 A3004 RMK A01 T00060001  RH  096%=      5-min Rain = 0
KHA3 190731Z 33016KT 01/00 A3004 RMK A01 T00070001  RH  096%=      5-min Rain = 0
KHA3 190732Z 33017KT 01/00 A3004 RMK A01 T00080001  RH  096%=      5-min Rain = 0
KHA3 190733Z 33018KT 01/00 A3004 RMK A01 T00080001  RH  095%=      5-min Rain = 0
KHA3 190734Z 34021G26KT 01/00 A3004 RMK A01 T00090001  RH  094%=      5-min Rain = 0
KHA3 190735Z 34021KT 01/00 A3004 RMK A01 T000900-0  RH  093%=      5-min Rain = 0
KHA3 190736Z 34018KT 01/00 A3005 RMK A01 T001000-0  RH  093%=      5-min Rain = 0
KHA3 190737Z 34016KT 01/00 A3005 RMK A01 T001000-0  RH  093%=      5-min Rain = 0
KHA3 190738Z 34015KT 01/00 A3005 RMK A01 T00100000  RH  093%=      5-min Rain = 0
KHA3 190739Z 34017KT 01/00 A3005 RMK A01 T00100001  RH  093%=      5-min Rain = 0
KHA3 190740Z 34015G20KT 01/00 A3005 RMK A01 T00100001  RH  094%=      5-min Rain = 0
KHA3 190741Z 34018KT 01/00 A3005 RMK A01 T00100001  RH  094%=      5-min Rain = 0
KHA3 190742Z 34016KT 01/00 A3005 RMK A01 T000900-0  RH  094%=      5-min Rain = 0
KHA3 190743Z 34015KT 01/00 A3005 RMK A01 T00090001  RH  094%=      5-min Rain = 0
KHA3 190744Z 34015KT 01/00 A3005 RMK A01 T00090001  RH  094%=      5-min Rain = 0
KHA3 190745Z 34012KT 01/00 A3005 RMK A01 T00090000  RH  094%=      5-min Rain = 0
KHA3 190746Z 35013KT 01/00 A3005 RMK A01 T00080000  RH  095%=      5-min Rain = 0
KHA3 190747Z 36013KT 01/00 A3005 RMK A01 T00080000  RH  095%=      5-min Rain = 0
KHA3 190748Z 35014KT 01/00 A3005 RMK A01 T000700-0  RH  095%=      5-min Rain = 0
KHA3 190749Z 34014KT 01/M00 A3005 RMK A01 T00061001  RH  095%=      5-min Rain = 0.01
KHA3 190750Z 34014KT 01/M00 A3005 RMK A01 T00061001  RH  096%=      5-min Rain = 0
KHA3 190751Z 34018KT 01/M00 A3005 RMK A01 T00051001  RH  096%=      5-min Rain = 0
KHA3 190752Z 35013KT 01/M00 A3005 RMK A01 T00061001  RH  095%=      5-min Rain = 0
KHA3 190753Z 34016KT 01/M00 A3005 RMK A01 T00061001  RH  095%=      5-min Rain = 0
KHA3 190754Z 34015G20KT 01/M00 A3005 RMK A01 T00051001  RH  095%=      5-min Rain = 0
KHA3 190755Z 34014KT 01/M00 A3005 RMK A01 T00051001  RH  095%=      5-min Rain = 0
KHA3 190756Z 34014KT 01/M00 A3005 RMK A01 T00061001  RH  095%=      5-min Rain = 0
KHA3 190757Z 34018KT 01/M00 A3005 RMK A01 T00061001  RH  095%=      5-min Rain = 0
KHA3 190758Z 34013KT 01/M00 A3005 RMK A01 T00071001  RH  095%=      5-min Rain = 0
KHA3 190759Z 34015KT 01/00 A3005 RMK A01 T000700-0  RH  095%=      5-min Rain = 0
KHA3 190800Z 34015KT 01/00 A3005 RMK A01 T000700-0  RH  095%=      5-min Rain = 0
KHA3 190801Z 34015KT 01/M00 A3005 RMK A01 T00081001  RH  094%=      5-min Rain = 0
KHA3 190802Z 33014KT 01/00 A3005 RMK A01 T000800-0  RH  094%=      5-min Rain = 0
KHA3 190803Z 34016KT 01/00 A3005 RMK A01 T000900-0  RH  094%=      5-min Rain = 0
KHA3 190804Z 33015KT 01/M00 A3005 RMK A01 T00091001  RH  093%=      5-min Rain = 0
KHA3 190805Z 33014KT 01/M00 A3005 RMK A01 T00101001  RH  093%=      5-min Rain = 0
KHA3 190806Z 33016KT 01/M00 A3005 RMK A01 T00111001  RH  092%=      5-min Rain = 0
KHA3 190807Z 33016KT 01/M00 A3005 RMK A01 T00111001  RH  092%=      5-min Rain = 0
KHA3 190808Z 33016KT 01/M00 A3005 RMK A01 T00121001  RH  091%=      5-min Rain = 0
KHA3 190809Z 34015KT 01/M00 A3005 RMK A01 T00121002  RH  091%=      5-min Rain = 0
KHA3 190810Z 33015KT 01/M00 A3005 RMK A01 T00121002  RH  090%=      5-min Rain = 0
KHA3 190811Z 33016KT 01/M00 A3005 RMK A01 T00131003  RH  089%=      5-min Rain = 0
KHA3 190812Z 33017KT 01/M00 A3005 RMK A01 T00141004  RH  088%=      5-min Rain = 0
KHA3 190813Z 33015KT 01/M01 A3006 RMK A01 T00141005  RH  087%=      5-min Rain = 0
KHA3 190814Z 33014KT 01/M00 A3006 RMK A01 T00141003  RH  088%=      5-min Rain = 0
KHA3 190815Z 34017KT 01/M00 A3006 RMK A01 T00141003  RH  088%=      5-min Rain = 0
KHA3 190816Z 34018KT 01/M00 A3006 RMK A01 T00141004  RH  088%=      5-min Rain = 0
KHA3 190817Z 34019KT 01/M01 A3006 RMK A01 T00141006  RH  087%=      5-min Rain = 0
KHA3 190818Z 34019KT 02/M01 A3006 RMK A01 T00151006  RH  086%=      5-min Rain = 0
KHA3 190819Z 34015KT 02/M01 A3006 RMK A01 T00151006  RH  086%=      5-min Rain = 0
KHA3 190820Z 34015KT 02/M00 A3006 RMK A01 T00151004  RH  087%=      5-min Rain = 0
KHA3 190821Z 34018KT 02/M00 A3006 RMK A01 T00151004  RH  087%=      5-min Rain = 0
KHA3 190822Z 34016KT 02/M01 A3006 RMK A01 T00151005  RH  087%=      5-min Rain = 0
KHA3 190823Z 34016KT 02/M01 A3006 RMK A01 T00151005  RH  087%=      5-min Rain = 0
KHA3 190824Z 33015KT 02/M01 A3006 RMK A01 T00151005  RH  087%=      5-min Rain = 0
KHA3 190825Z 34015KT 02/M01 A3006 RMK A01 T00151005  RH  087%=      5-min Rain = 0
KHA3 190826Z 33017KT 02/M01 A3006 RMK A01 T00151006  RH  086%=      5-min Rain = 0
KHA3 190827Z 33015KT 02/M01 A3006 RMK A01 T00151006  RH  086%=      5-min Rain = 0
KHA3 190828Z 34015KT 02/M01 A3006 RMK A01 T00151006  RH  086%=      5-min Rain = 0
KHA3 190829Z 33017KT 02/M01 A3006 RMK A01 T00161006  RH  085%=      5-min Rain = 0
KHA3 190830Z 33015KT 02/M01 A3006 RMK A01 T00161007  RH  085%=      5-min Rain = 0
KHA3 190831Z 34018KT 02/M01 A3006 RMK A01 T00171006  RH  085%=      5-min Rain = 0
KHA3 190832Z 34016KT 02/M01 A3006 RMK A01 T00171008  RH  084%=      5-min Rain = 0
KHA3 190833Z 33018KT 02/M01 A3006 RMK A01 T00171008  RH  083%=      5-min Rain = 0
KHA3 190834Z 34019KT 02/M01 A3006 RMK A01 T00171010  RH  082%=      5-min Rain = 0
KHA3 190835Z 34016G21KT 02/M01 A3006 RMK A01 T00181009  RH  082%=      5-min Rain = 0
KHA3 190836Z 34018KT 02/M01 A3006 RMK A01 T00181009  RH  082%=      5-min Rain = 0
KHA3 190837Z 34017KT 02/M01 A3006 RMK A01 T00181009  RH  082%=      5-min Rain = 0
KHA3 190838Z 34014KT 02/M01 A3006 RMK A01 T00181010  RH  082%=      5-min Rain = 0
KHA3 190839Z 34012KT 02/M01 A3006 RMK A01 T00181007  RH  084%=      5-min Rain = 0
KHA3 190840Z 34014KT 02/M01 A3006 RMK A01 T00171006  RH  085%=      5-min Rain = 0
KHA3 190841Z 34015KT 02/M01 A3006 RMK A01 T00171006  RH  085%=      5-min Rain = 0
KHA3 190842Z 34013KT 02/M01 A3006 RMK A01 T00171007  RH  084%=      5-min Rain = 0
KHA3 190843Z 34014G19KT 02/M01 A3006 RMK A01 T00171006  RH  085%=      5-min Rain = 0
KHA3 190844Z 34016KT 02/M01 A3006 RMK A01 T00171008  RH  084%=      5-min Rain = 0
KHA3 190845Z 34014KT 02/M01 A3006 RMK A01 T00181009  RH  082%=      5-min Rain = 0
KHA3 190846Z 34014KT 02/M01 A3006 RMK A01 T00181008  RH  083%=      5-min Rain = 0
KHA3 190847Z 34013KT 02/M01 A3006 RMK A01 T00181007  RH  084%=      5-min Rain = 0
KHA3 190848Z 34015KT 02/M01 A3006 RMK A01 T00181007  RH  083%=      5-min Rain = 0
KHA3 190849Z 34013KT 02/M01 A3006 RMK A01 T00181007  RH  083%=      5-min Rain = 0
KHA3 190850Z 34012KT 02/M01 A3006 RMK A01 T00181006  RH  084%=      5-min Rain = 0
KHA3 190851Z 34013KT 02/M01 A3006 RMK A01 T00181006  RH  084%=      5-min Rain = 0
KHA3 190852Z 34012KT 02/M01 A3007 RMK A01 T00181005  RH  085%=      5-min Rain = 0
KHA3 190853Z 34013KT 02/M01 A3007 RMK A01 T00171006  RH  085%=      5-min Rain = 0
KHA3 190854Z 34014KT 02/M01 A3007 RMK A01 T00171007  RH  084%=      5-min Rain = 0
KHA3 190855Z 33013KT 02/M01 A3007 RMK A01 T00181007  RH  084%=      5-min Rain = 0
KHA3 190856Z 34011KT 02/M01 A3007 RMK A01 T00181006  RH  084%=      5-min Rain = 0
KHA3 190857Z 33012KT 02/M01 A3007 RMK A01 T00181006  RH  084%=      5-min Rain = 0
KHA3 190858Z 33010KT 02/M01 A3007 RMK A01 T00181005  RH  085%=      5-min Rain = 0
KHA3 190859Z 33012KT 02/M01 A3007 RMK A01 T00181005  RH  085%=      5-min Rain = 0
KHA3 190900Z 33013KT 02/M01 A3007 RMK A01 T00181007  RH  084%=      5-min Rain = 0
KHA3 190901Z 33013KT 02/M01 A3007 RMK A01 T00181006  RH  084%=      5-min Rain = 0
KHA3 190902Z 33014KT 02/M01 A3007 RMK A01 T00191006  RH  084%=      5-min Rain = 0
KHA3 190903Z 33015KT 02/M01 A3007 RMK A01 T00191007  RH  083%=      5-min Rain = 0
KHA3 190904Z 33016KT 02/M01 A3007 RMK A01 T00201008  RH  082%=      5-min Rain = 0
KHA3 190905Z 33015KT 02/M01 A3007 RMK A01 T00201009  RH  081%=      5-min Rain = 0
KHA3 190906Z 33015G20KT 02/M01 A3007 RMK A01 T00201009  RH  081%=      5-min Rain = 0
KHA3 190907Z 33014KT 02/M01 A3007 RMK A01 T00211008  RH  081%=      5-min Rain = 0
KHA3 190908Z 33012KT 02/M01 A3007 RMK A01 T00211007  RH  082%=      5-min Rain = 0
KHA3 190909Z 33014KT 02/M01 A3007 RMK A01 T00211006  RH  082%=      5-min Rain = 0
KHA3 190910Z 34015KT 02/M01 A3007 RMK A01 T00211006  RH  082%=      5-min Rain = 0
KHA3 190911Z 33015KT 02/M01 A3007 RMK A01 T00211006  RH  083%=      5-min Rain = 0
KHA3 190912Z 34014KT 02/M01 A3007 RMK A01 T00211007  RH  082%=      5-min Rain = 0
KHA3 190913Z 33013KT 02/M01 A3007 RMK A01 T00221007  RH  081%=      5-min Rain = 0
KHA3 190914Z 34017KT 02/M01 A3008 RMK A01 T00221007  RH  081%=      5-min Rain = 0
KHA3 190915Z 34016KT 02/M01 A3008 RMK A01 T00221009  RH  080%=      5-min Rain = 0
KHA3 190916Z 34016KT 02/M01 A3008 RMK A01 T00231008  RH  080%=      5-min Rain = 0
KHA3 190917Z 34015KT 02/M01 A3008 RMK A01 T00221008  RH  080%=      5-min Rain = 0
KHA3 190918Z 33018KT 02/M01 A3008 RMK A01 T00231008  RH  080%=      5-min Rain = 0
KHA3 190919Z 34016KT 02/M01 A3008 RMK A01 T00231009  RH  079%=      5-min Rain = 0
KHA3 190920Z 34017KT 02/M01 A3008 RMK A01 T00241007  RH  080%=      5-min Rain = 0
KHA3 190921Z 33015KT 02/M01 A3008 RMK A01 T00231008  RH  080%=      5-min Rain = 0
KHA3 190922Z 33015KT 02/M01 A3008 RMK A01 T00231007  RH  080%=      5-min Rain = 0
KHA3 190923Z 34015KT 02/M01 A3008 RMK A01 T00231007  RH  080%=      5-min Rain = 0
KHA3 190924Z 34016KT 02/M01 A3008 RMK A01 T00231008  RH  080%=      5-min Rain = 0
KHA3 190925Z 33014KT 02/M01 A3008 RMK A01 T00231008  RH  080%=      5-min Rain = 0
KHA3 190926Z 34014G20KT 02/M01 A3008 RMK A01 T00231007  RH  081%=      5-min Rain = 0
KHA3 190927Z 33017KT 02/M01 A3008 RMK A01 T00231008  RH  080%=      5-min Rain = 0
KHA3 190928Z 34016KT 02/M01 A3008 RMK A01 T00231009  RH  079%=      5-min Rain = 0
KHA3 190929Z 33015KT 02/M01 A3008 RMK A01 T00241009  RH  079%=      5-min Rain = 0
KHA3 190930Z 33015KT 02/M01 A3008 RMK A01 T00241006  RH  080%=      5-min Rain = 0
KHA3 190931Z 33015KT 02/M01 A3008 RMK A01 T00241007  RH  080%=      5-min Rain = 0
KHA3 190932Z 33014KT 02/M01 A3008 RMK A01 T00241008  RH  080%=      5-min Rain = 0
KHA3 190933Z 34015KT 02/M01 A3008 RMK A01 T00241008  RH  080%=      5-min Rain = 0
KHA3 190934Z 34016KT 02/M01 A3008 RMK A01 T00241008  RH  080%=      5-min Rain = 0
KHA3 190935Z 33015KT 02/M01 A3009 RMK A01 T00241008  RH  080%=      5-min Rain = 0
KHA3 190936Z 33015KT 02/M01 A3009 RMK A01 T00241008  RH  080%=      5-min Rain = 0
KHA3 190937Z 34020KT 02/M01 A3009 RMK A01 T00241008  RH  079%=      5-min Rain = 0
KHA3 190938Z 33017KT 03/M01 A3009 RMK A01 T00251010  RH  078%=      5-min Rain = 0
KHA3 190939Z 34020KT 03/M01 A3009 RMK A01 T00251009  RH  078%=      5-min Rain = 0
KHA3 190940Z 34021KT 03/M01 A3009 RMK A01 T00261011  RH  077%=      5-min Rain = 0
KHA3 190941Z 33022KT 03/M01 A3009 RMK A01 T00261012  RH  076%=      5-min Rain = 0
KHA3 190942Z 33019KT 03/M01 A3009 RMK A01 T00271011  RH  076%=      5-min Rain = 0
KHA3 190943Z 34018KT 03/M01 A3009 RMK A01 T00271010  RH  077%=      5-min Rain = 0
KHA3 190944Z 33019G24KT 03/M01 A3009 RMK A01 T00261012  RH  076%=      5-min Rain = 0
KHA3 190945Z 33019G24KT 03/M01 A3009 RMK A01 T00261011  RH  077%=      5-min Rain = 0
KHA3 190946Z 33020KT 03/M01 A3009 RMK A01 T00261012  RH  076%=      5-min Rain = 0
KHA3 190947Z 34019KT 03/M01 A3009 RMK A01 T00261012  RH  076%=      5-min Rain = 0
KHA3 190948Z 34025KT 03/M01 A301 RMK A01 T00261013  RH  075%=      5-min Rain = 0
KHA3 190949Z 34020KT 03/M02 A301 RMK A01 T00261015  RH  075%=      5-min Rain = 0
KHA3 190950Z 34023G28KT 03/M01 A301 RMK A01 T00251014  RH  075%=      5-min Rain = 0
KHA3 190951Z 34028KT 02/M02 A301 RMK A01 T00241019  RH  073%=      5-min Rain = 0
KHA3 190952Z 34028KT 02/M02 A301 RMK A01 T00241021  RH  072%=      5-min Rain = 0
KHA3 190953Z 34024KT 02/M02 A301 RMK A01 T00241021  RH  072%=      5-min Rain = 0
KHA3 190954Z 34020G27KT 02/M02 A301 RMK A01 T00231021  RH  072%=      5-min Rain = 0
KHA3 190955Z 34023KT 02/M02 A301 RMK A01 T00221020  RH  074%=      5-min Rain = 0
KHA3 190956Z 34023KT 02/M02 A301 RMK A01 T00221022  RH  073%=      5-min Rain = 0
KHA3 190957Z 34022KT 02/M02 A301 RMK A01 T00211022  RH  073%=      5-min Rain = 0
KHA3 190958Z 34022KT 02/M02 A301 RMK A01 T00211022  RH  073%=      5-min Rain = 0
KHA3 190959Z 34023KT 02/M02 A301 RMK A01 T00211022  RH  073%=      5-min Rain = 0
KHA3 191000Z 34022KT 02/M02 A301 RMK A01 T00211023  RH  073%=      5-min Rain = 0
KHA3 191001Z 34023G30KT 02/M02 A301 RMK A01 T00211023  RH  073%=      5-min Rain = 0
KHA3 191002Z 34023G29KT 02/M02 A301 RMK A01 T00211024  RH  072%=      5-min Rain = 0
KHA3 191003Z 34024KT 02/M02 A301 RMK A01 T00211024  RH  072%=      5-min Rain = 0
KHA3 191004Z 35023KT 02/M03 A3011 RMK A01 T00211025  RH  072%=      5-min Rain = 0
KHA3 191005Z 34022KT 02/M03 A3011 RMK A01 T00211025  RH  072%=      5-min Rain = 0
KHA3 191006Z 34022KT 02/M03 A3011 RMK A01 T00211025  RH  071%=      5-min Rain = 0
KHA3 191007Z 34022KT 02/M03 A3011 RMK A01 T00211026  RH  071%=      5-min Rain = 0
KHA3 191008Z 34020KT 02/M03 A3011 RMK A01 T00211025  RH  071%=      5-min Rain = 0
KHA3 191009Z 34022KT 02/M03 A3011 RMK A01 T00211025  RH  072%=      5-min Rain = 0
KHA3 191010Z 34017G23KT 02/M03 A3011 RMK A01 T00211025  RH  072%=      5-min Rain = 0
KHA3 191011Z 34024KT 02/M03 A3011 RMK A01 T00201026  RH  072%=      5-min Rain = 0
KHA3 191012Z 34024KT 02/M03 A3011 RMK A01 T00201027  RH  071%=      5-min Rain = 0
KHA3 191013Z 34023KT 02/M03 A3011 RMK A01 T00201028  RH  070%=      5-min Rain = 0
KHA3 191014Z 34021G26KT 02/M03 A3011 RMK A01 T00191029  RH  070%=      5-min Rain = 0
KHA3 191015Z 35020G25KT 02/M03 A3011 RMK A01 T00191028  RH  071%=      5-min Rain = 0
KHA3 191016Z 34023G28KT 02/M03 A3011 RMK A01 T00181028  RH  071%=      5-min Rain = 0
KHA3 191017Z 34020KT 02/M03 A3011 RMK A01 T00181029  RH  071%=      5-min Rain = 0
KHA3 191018Z 34018G24KT 02/M03 A3011 RMK A01 T00181028  RH  072%=      5-min Rain = 0
KHA3 191019Z 34023KT 02/M03 A3011 RMK A01 T00161030  RH  071%=      5-min Rain = 0
KHA3 191020Z 34023G28KT 02/M03 A3012 RMK A01 T00161032  RH  070%=      5-min Rain = 0
KHA3 191021Z 34020KT 02/M03 A3012 RMK A01 T00171032  RH  070%=      5-min Rain = 0
KHA3 191022Z 35018KT 02/M03 A3012 RMK A01 T00161031  RH  071%=      5-min Rain = 0
KHA3 191023Z 35022KT 02/M03 A3012 RMK A01 T00161031  RH  071%=      5-min Rain = 0
KHA3 191024Z 34024KT 02/M03 A3012 RMK A01 T00151033  RH  070%=      5-min Rain = 0
KHA3 191025Z 34023KT 02/M03 A3012 RMK A01 T00161033  RH  070%=      5-min Rain = 0
KHA3 191026Z 34021KT 02/M03 A3012 RMK A01 T00151033  RH  070%=      5-min Rain = 0
KHA3 191027Z 34019KT 01/M03 A3012 RMK A01 T00141033  RH  071%=      5-min Rain = 0
KHA3 191028Z 34021KT 01/M03 A3012 RMK A01 T00131033  RH  071%=      5-min Rain = 0
KHA3 191029Z 34022KT 01/M03 A3012 RMK A01 T00131033  RH  071%=      5-min Rain = 0
KHA3 191030Z 34020KT 01/M03 A3012 RMK A01 T00131033  RH  071%=      5-min Rain = 0
KHA3 191031Z 34018KT 01/M03 A3012 RMK A01 T00131033  RH  071%=      5-min Rain = 0
KHA3 191032Z 34020G25KT 01/M03 A3013 RMK A01 T00121034  RH  071%=      5-min Rain = 0
KHA3 191033Z 34021KT 01/M04 A3013 RMK A01 T00121035  RH  071%=      5-min Rain = 0
KHA3 191034Z 34017KT 01/M03 A3013 RMK A01 T00121034  RH  071%=      5-min Rain = 0
KHA3 191035Z 34016G21KT 01/M03 A3013 RMK A01 T00111034  RH  072%=      5-min Rain = 0
KHA3 191036Z 34019KT 01/M03 A3013 RMK A01 T00111034  RH  072%=      5-min Rain = 0
KHA3 191037Z 34017KT 01/M04 A3013 RMK A01 T00111035  RH  071%=      5-min Rain = 0
KHA3 191038Z 34017KT 01/M04 A3013 RMK A01 T00111035  RH  072%=      5-min Rain = 0
KHA3 191039Z 34016KT 01/M03 A3013 RMK A01 T00111034  RH  072%=      5-min Rain = 0
KHA3 191040Z 34015KT 01/M03 A3013 RMK A01 T00101033  RH  073%=      5-min Rain = 0
KHA3 191041Z 34018KT 01/M03 A3013 RMK A01 T00091034  RH  073%=      5-min Rain = 0
KHA3 191042Z 34016KT 01/M03 A3013 RMK A01 T00091034  RH  073%=      5-min Rain = 0
KHA3 191043Z 34017KT 01/M03 A3013 RMK A01 T00091034  RH  073%=      5-min Rain = 0
KHA3 191044Z 33017KT 01/M03 A3013 RMK A01 T00091033  RH  073%=      5-min Rain = 0
KHA3 191045Z 34016KT 01/M03 A3013 RMK A01 T00091033  RH  073%=      5-min Rain = 0
KHA3 191046Z 34017KT 01/M03 A3013 RMK A01 T00091033  RH  074%=      5-min Rain = 0
KHA3 191047Z 33019KT 01/M03 A3013 RMK A01 T00081034  RH  074%=      5-min Rain = 0
KHA3 191048Z 34020KT 01/M04 A3013 RMK A01 T00081035  RH  073%=      5-min Rain = 0
KHA3 191049Z 34021KT 01/M04 A3013 RMK A01 T00081036  RH  072%=      5-min Rain = 0
KHA3 191050Z 34021KT 01/M04 A3013 RMK A01 T00081036  RH  072%=      5-min Rain = 0
KHA3 191051Z 33020KT 01/M04 A3014 RMK A01 T00081036  RH  072%=      5-min Rain = 0
KHA3 191052Z 34022KT 01/M04 A3014 RMK A01 T00081036  RH  072%=      5-min Rain = 0
KHA3 191053Z 34020G26KT 01/M04 A3014 RMK A01 T00081036  RH  072%=      5-min Rain = 0
KHA3 191054Z 34022G27KT 01/M04 A3014 RMK A01 T00071037  RH  072%=      5-min Rain = 0
KHA3 191055Z 34020KT 01/M04 A3014 RMK A01 T00071038  RH  072%=      5-min Rain = 0
KHA3 191056Z 34018KT 01/M04 A3014 RMK A01 T00061038  RH  072%=      5-min Rain = 0
KHA3 191057Z 34020KT 01/M04 A3014 RMK A01 T00061038  RH  072%=      5-min Rain = 0
KHA3 191058Z 33020KT 01/M04 A3015 RMK A01 T00061039  RH  072%=      5-min Rain = 0
KHA3 191059Z 33021KT 01/M04 A3015 RMK A01 T00061040  RH  072%=      5-min Rain = 0
KHA3 191100Z 34019KT 01/M04 A3015 RMK A01 T00051040  RH  071%=      5-min Rain = 0
KHA3 191101Z 33019KT 01/M04 A3015 RMK A01 T00051040  RH  072%=      5-min Rain = 0
KHA3 191102Z 33017G22KT 01/M04 A3015 RMK A01 T00051039  RH  072%=      5-min Rain = 0
KHA3 191103Z 33021KT 00/M04 A3015 RMK A01 T00041040  RH  072%=      5-min Rain = 0
KHA3 191104Z 34022KT 00/M04 A3015 RMK A01 T00041042  RH  071%=      5-min Rain = 0
KHA3 191105Z 34019KT 00/M04 A3015 RMK A01 T00041042  RH  071%=      5-min Rain = 0
KHA3 191106Z 34021G27KT 00/M04 A3015 RMK A01 T00041042  RH  071%=      5-min Rain = 0
KHA3 191107Z 34023KT 00/M04 A3015 RMK A01 T00041042  RH  071%=      5-min Rain = 0
KHA3 191108Z 34022KT 00/M04 A3015 RMK A01 T00041042  RH  071%=      5-min Rain = 0
KHA3 191109Z 35021G29KT 00/M04 A3015 RMK A01 T00041043  RH  071%=      5-min Rain = 0
KHA3 191110Z 35023G28KT 00/M04 A3015 RMK A01 T00041043  RH  071%=      5-min Rain = 0
KHA3 191111Z 35021G26KT 00/M04 A3015 RMK A01 T00031044  RH  070%=      5-min Rain = 0
KHA3 191112Z 35022KT 00/M04 A3015 RMK A01 T00031044  RH  071%=      5-min Rain = 0
KHA3 191113Z 34023G28KT 00/M04 A3015 RMK A01 T00031044  RH  071%=      5-min Rain = 0
KHA3 191114Z 35021G27KT 00/M05 A3015 RMK A01 T00031045  RH  070%=      5-min Rain = 0
KHA3 191115Z 35022KT 00/M04 A3015 RMK A01 T00021044  RH  071%=      5-min Rain = 0
KHA3 191116Z 35022KT 00/M04 A3015 RMK A01 T00021044  RH  071%=      5-min Rain = 0
KHA3 191117Z 35021KT 00/M05 A3015 RMK A01 T00021045  RH  071%=      5-min Rain = 0
KHA3 191118Z 35023G29KT 00/M05 A3015 RMK A01 T00021045  RH  071%=      5-min Rain = 0
KHA3 191119Z 34019G24KT 00/M04 A3015 RMK A01 T00021044  RH  071%=      5-min Rain = 0
KHA3 191120Z 34020G25KT 00/M04 A3015 RMK A01 T00021044  RH  071%=      5-min Rain = 0
KHA3 191121Z 34021KT 00/M04 A3015 RMK A01 T00021044  RH  071%=      5-min Rain = 0
KHA3 191122Z 35017G22KT 00/M04 A3015 RMK A01 T00011044  RH  071%=      5-min Rain = 0
KHA3 191123Z 35020KT 00/M04 A3015 RMK A01 T00011044  RH  072%=      5-min Rain = 0
KHA3 191124Z 34019KT 00/M04 A3015 RMK A01 T00011044  RH  072%=      5-min Rain = 0
KHA3 191125Z 34019KT 00/04 A3015 RMK A01 T00000-44  RH  072%=      5-min Rain = 0
KHA3 191126Z 34021KT 00/04 A3015 RMK A01 T00000-44  RH  072%=      5-min Rain = 0
KHA3 191127Z 34022KT 00/05 A3015 RMK A01 T00-00-45  RH  072%=      5-min Rain = 0
KHA3 191128Z 34020KT 00/05 A3015 RMK A01 T00000-45  RH  071%=      5-min Rain = 0
KHA3 191129Z 34022G27KT 00/05 A3015 RMK A01 T00000-45  RH  072%=      5-min Rain = 0
KHA3 191130Z 34020G25KT 00/05 A3015 RMK A01 T00000-45  RH  071%=      5-min Rain = 0
KHA3 191131Z 34021KT 00/05 A3015 RMK A01 T00000-45  RH  072%=      5-min Rain = 0
KHA3 191132Z 34018KT 00/05 A3016 RMK A01 T00-00-45  RH  072%=      5-min Rain = 0
KHA3 191133Z 34018KT 00/04 A3016 RMK A01 T00-00-44  RH  072%=      5-min Rain = 0
KHA3 191134Z 34017G22KT 00/04 A3016 RMK A01 T00-00-44  RH  072%=      5-min Rain = 0
KHA3 191135Z 34018KT M00/M04 A3016 RMK A01 T10011044  RH  072%=      5-min Rain = 0
KHA3 191136Z 34017KT M00/M05 A3016 RMK A01 T10011045  RH  072%=      5-min Rain = 0
KHA3 191137Z 34016G21KT M00/M05 A3016 RMK A01 T10011045  RH  072%=      5-min Rain = 0
KHA3 191138Z 34017KT M00/M05 A3016 RMK A01 T10011045  RH  072%=      5-min Rain = 0
KHA3 191139Z 34016KT M00/M05 A3016 RMK A01 T10011045  RH  072%=      5-min Rain = 0
KHA3 191140Z 34016KT M00/M04 A3016 RMK A01 T10011044  RH  072%=      5-min Rain = 0
KHA3 191141Z 34015KT M00/M05 A3017 RMK A01 T10011045  RH  072%=      5-min Rain = 0
KHA3 191142Z 34015KT M00/M05 A3017 RMK A01 T10011045  RH  072%=      5-min Rain = 0
KHA3 191143Z 34015KT M00/M05 A3017 RMK A01 T10011045  RH  072%=      5-min Rain = 0
KHA3 191144Z 34016G21KT M00/M05 A3017 RMK A01 T10021045  RH  073%=      5-min Rain = 0
KHA3 191145Z 34014KT M00/M04 A3017 RMK A01 T10021044  RH  073%=      5-min Rain = 0
KHA3 191146Z 34013KT M00/M04 A3017 RMK A01 T10021044  RH  073%=      5-min Rain = 0
KHA3 191147Z 34013KT M00/M05 A3017 RMK A01 T10031045  RH  073%=      5-min Rain = 0
KHA3 191148Z 34014KT M00/M04 A3017 RMK A01 T10031043  RH  074%=      5-min Rain = 0
KHA3 191149Z 34013KT M00/M04 A3017 RMK A01 T10031044  RH  074%=      5-min Rain = 0
KHA3 191150Z 34013KT M00/M04 A3017 RMK A01 T10031044  RH  074%=      5-min Rain = 0
KHA3 191151Z 34012KT M00/M04 A3017 RMK A01 T10041044  RH  074%=      5-min Rain = 0
KHA3 191152Z 34014KT M00/M04 A3017 RMK A01 T10041044  RH  074%=      5-min Rain = 0
KHA3 191153Z 33012KT M00/M05 A3017 RMK A01 T10041045  RH  074%=      5-min Rain = 0
KHA3 191154Z 34015KT M00/M04 A3017 RMK A01 T10041044  RH  074%=      5-min Rain = 0
KHA3 191155Z 33015KT M00/M05 A3017 RMK A01 T10041045  RH  073%=      5-min Rain = 0
KHA3 191156Z 34016KT M00/M05 A3017 RMK A01 T10031046  RH  073%=      5-min Rain = 0
KHA3 191157Z 33015KT M00/M05 A3017 RMK A01 T10031046  RH  073%=      5-min Rain = 0
KHA3 191158Z 33015KT M00/M05 A3017 RMK A01 T10031046  RH  073%=      5-min Rain = 0
KHA3 191159Z 33015KT M00/M05 A3018 RMK A01 T10031046  RH  073%=      5-min Rain = 0
KHA3 191200Z 33013KT M00/M05 A3018 RMK A01 T10031046  RH  072%=      5-min Rain = 0
KHA3 191201Z 33016KT M00/M05 A3018 RMK A01 T10021046  RH  073%=      5-min Rain = 0
KHA3 191202Z 33014KT M00/M05 A3018 RMK A01 T10031046  RH  072%=      5-min Rain = 0
KHA3 191203Z 33016KT M00/M05 A3018 RMK A01 T10031046  RH  072%=      5-min Rain = 0
KHA3 191204Z 33015KT M00/M05 A3018 RMK A01 T10021047  RH  072%=      5-min Rain = 0
KHA3 191205Z 33012KT M00/M05 A3018 RMK A01 T10021046  RH  072%=      5-min Rain = 0
KHA3 191206Z 33013KT M00/M05 A3018 RMK A01 T10021045  RH  073%=      5-min Rain = 0
KHA3 191207Z 33013KT M00/M05 A3019 RMK A01 T10031046  RH  073%=      5-min Rain = 0
KHA3 191208Z 33012KT M00/M05 A3019 RMK A01 T10031046  RH  073%=      5-min Rain = 0
KHA3 191209Z 33014KT M00/M05 A3019 RMK A01 T10031046  RH  073%=      5-min Rain = 0
KHA3 191210Z 33014KT M00/M05 A3019 RMK A01 T10031046  RH  073%=      5-min Rain = 0
KHA3 191211Z 33015KT M00/M05 A3019 RMK A01 T10031046  RH  073%=      5-min Rain = 0
KHA3 191212Z 33012KT M00/M05 A3019 RMK A01 T10031047  RH  072%=      5-min Rain = 0
KHA3 191213Z 33013KT M00/M05 A3019 RMK A01 T10031046  RH  073%=      5-min Rain = 0
KHA3 191214Z 33014KT M00/M05 A3019 RMK A01 T10031046  RH  073%=      5-min Rain = 0
KHA3 191215Z 33012KT M00/M05 A3019 RMK A01 T10031046  RH  073%=      5-min Rain = 0
KHA3 191216Z 33012KT M00/M05 A3019 RMK A01 T10031046  RH  073%=      5-min Rain = 0
KHA3 191217Z 33013KT M00/M05 A3019 RMK A01 T10031046  RH  073%=      5-min Rain = 0
KHA3 191218Z 33012KT M00/M05 A3019 RMK A01 T10041046  RH  073%=      5-min Rain = 0
KHA3 191219Z 33011KT M00/M05 A3019 RMK A01 T10041046  RH  073%=      5-min Rain = 0
KHA3 191220Z 33010KT M01/M05 A3019 RMK A01 T10051046  RH  074%=      5-min Rain = 0
KHA3 191221Z 33012KT M01/M05 A3019 RMK A01 T10061046  RH  074%=      5-min Rain = 0
KHA3 191222Z 32012KT M01/M05 A3019 RMK A01 T10051046  RH  074%=      5-min Rain = 0
KHA3 191223Z 32011KT M01/M05 A3019 RMK A01 T10051046  RH  074%=      5-min Rain = 0
KHA3 191224Z 33010KT M01/M05 A3019 RMK A01 T10051046  RH  074%=      5-min Rain = 0
KHA3 191225Z 32011KT M01/M05 A302 RMK A01 T10061046  RH  074%=      5-min Rain = 0
KHA3 191226Z 32010KT M01/M05 A3019 RMK A01 T10061046  RH  075%=      5-min Rain = 0
KHA3 191227Z 32010KT M01/M05 A302 RMK A01 T10061045  RH  075%=      5-min Rain = 0
KHA3 191228Z 32010KT M01/M05 A302 RMK A01 T10061045  RH  075%=      5-min Rain = 0
KHA3 191229Z 31010KT M01/M05 A302 RMK A01 T10071045  RH  075%=      5-min Rain = 0
KHA3 191230Z 32012KT M01/M04 A302 RMK A01 T10071044  RH  076%=      5-min Rain = 0
KHA3 191231Z 32010KT M01/M05 A302 RMK A01 T10071045  RH  075%=      5-min Rain = 0
KHA3 191232Z 31011KT M01/M05 A302 RMK A01 T10071045  RH  075%=      5-min Rain = 0
KHA3 191233Z 31011KT M01/M04 A302 RMK A01 T10071044  RH  076%=      5-min Rain = 0
KHA3 191234Z 31011KT M01/M05 A302 RMK A01 T10071045  RH  076%=      5-min Rain = 0
KHA3 191235Z 31011G16KT M01/M05 A302 RMK A01 T10061045  RH  075%=      5-min Rain = 0
KHA3 191236Z 32016KT M01/M05 A302 RMK A01 T10061045  RH  075%=      5-min Rain = 0
KHA3 191237Z 32017KT M00/M05 A302 RMK A01 T10041047  RH  073%=      5-min Rain = 0
KHA3 191238Z 32014KT M00/M05 A3021 RMK A01 T10031047  RH  072%=      5-min Rain = 0
KHA3 191239Z 32015KT M00/M05 A3021 RMK A01 T10031047  RH  072%=      5-min Rain = 0
KHA3 191240Z 32016KT M00/M05 A3021 RMK A01 T10031047  RH  072%=      5-min Rain = 0
KHA3 191241Z 33014KT M00/M05 A3021 RMK A01 T10031049  RH  072%=      5-min Rain = 0
KHA3 191242Z 33015G20KT M00/M05 A3021 RMK A01 T10031048  RH  072%=      5-min Rain = 0
KHA3 191243Z 33014G19KT M00/M05 A3021 RMK A01 T10041049  RH  072%=      5-min Rain = 0
KHA3 191244Z 33013KT M00/M05 A3021 RMK A01 T10041048  RH  072%=      5-min Rain = 0
KHA3 191245Z 33017KT M00/M05 A3021 RMK A01 T10041048  RH  072%=      5-min Rain = 0
KHA3 191246Z 33013KT M00/M05 A3021 RMK A01 T10041049  RH  071%=      5-min Rain = 0
KHA3 191247Z 33012KT M00/M05 A3021 RMK A01 T10041049  RH  072%=      5-min Rain = 0
KHA3 191248Z 33015KT M01/M05 A3021 RMK A01 T10051049  RH  072%=      5-min Rain = 0
KHA3 191249Z 33014KT M01/M05 A3021 RMK A01 T10051050  RH  072%=      5-min Rain = 0
KHA3 191250Z 33013KT M00/M05 A3021 RMK A01 T10041049  RH  072%=      5-min Rain = 0
KHA3 191251Z 32013KT M01/M05 A3021 RMK A01 T10051049  RH  072%=      5-min Rain = 0
KHA3 191252Z 33013KT M01/M05 A3021 RMK A01 T10061049  RH  072%=      5-min Rain = 0
KHA3 191253Z 33013KT M01/M05 A3021 RMK A01 T10061049  RH  072%=      5-min Rain = 0
KHA3 191254Z 33017KT M01/M05 A3021 RMK A01 T10061050  RH  072%=      5-min Rain = 0
KHA3 191255Z 32014KT M01/M05 A3021 RMK A01 T10051050  RH  072%=      5-min Rain = 0
KHA3 191256Z 32014G19KT M01/M05 A3021 RMK A01 T10051049  RH  072%=      5-min Rain = 0
KHA3 191257Z 32015KT M01/M05 A3021 RMK A01 T10051049  RH  072%=      5-min Rain = 0
KHA3 191258Z 32013KT M01/M05 A3022 RMK A01 T10051049  RH  072%=      5-min Rain = 0
KHA3 191259Z 32012KT M01/M05 A3022 RMK A01 T10051049  RH  072%=      5-min Rain = 0
KHA3 191300Z 32012KT M01/M05 A3022 RMK A01 T10051048  RH  073%=      5-min Rain = 0
KHA3 191301Z 32015KT M01/M05 A3022 RMK A01 T10061048  RH  073%=      5-min Rain = 0
KHA3 191302Z 32014KT M01/M05 A3022 RMK A01 T10051049  RH  072%=      5-min Rain = 0
KHA3 191303Z 32013KT M01/M05 A3022 RMK A01 T10051049  RH  072%=      5-min Rain = 0
KHA3 191304Z 32014KT M01/M05 A3022 RMK A01 T10051049  RH  072%=      5-min Rain = 0
KHA3 191305Z 32017KT M01/M05 A3022 RMK A01 T10051049  RH  072%=      5-min Rain = 0
KHA3 191306Z 32015KT M00/M05 A3022 RMK A01 T10041050  RH  071%=      5-min Rain = 0
KHA3 191307Z 32013KT M00/M05 A3022 RMK A01 T10041049  RH  071%=      5-min Rain = 0
KHA3 191308Z 32015KT M01/M05 A3022 RMK A01 T10051049  RH  072%=      5-min Rain = 0
KHA3 191309Z 31016KT M01/M05 A3022 RMK A01 T10051048  RH  072%=      5-min Rain = 0
KHA3 191310Z 32017KT M01/M05 A3022 RMK A01 T10051049  RH  072%=      5-min Rain = 0
KHA3 191311Z 32017KT M01/M05 A3022 RMK A01 T10051050  RH  072%=      5-min Rain = 0
KHA3 191312Z 32016KT M01/M05 A3022 RMK A01 T10051051  RH  071%=      5-min Rain = 0
KHA3 191313Z 33018KT M01/M05 A3022 RMK A01 T10051051  RH  071%=      5-min Rain = 0
KHA3 191314Z 32018KT M01/M05 A3022 RMK A01 T10051052  RH  070%=      5-min Rain = 0
KHA3 191315Z 32018KT M00/M05 A3022 RMK A01 T10041052  RH  070%=      5-min Rain = 0
KHA3 191316Z 32018KT M00/M05 A3022 RMK A01 T10041052  RH  070%=      5-min Rain = 0
KHA3 191317Z 33020KT M00/M05 A3022 RMK A01 T10041053  RH  070%=      5-min Rain = 0
KHA3 191318Z 33021KT M00/M05 A3022 RMK A01 T10041053  RH  070%=      5-min Rain = 0
KHA3 191319Z 33018KT M00/M05 A3022 RMK A01 T10041053  RH  069%=      5-min Rain = 0
KHA3 191320Z 33020KT M00/M05 A3022 RMK A01 T10041054  RH  069%=      5-min Rain = 0
KHA3 191321Z 33018KT M00/M05 A3022 RMK A01 T10041054  RH  069%=      5-min Rain = 0
KHA3 191322Z 33020KT M00/M05 A3022 RMK A01 T10041053  RH  069%=      5-min Rain = 0
KHA3 191323Z 33017KT M00/M06 A3022 RMK A01 T10041055  RH  069%=      5-min Rain = 0
KHA3 191324Z 33019KT M00/M05 A3022 RMK A01 T10041054  RH  069%=      5-min Rain = 0
KHA3 191325Z 34021KT M01/M06 A3022 RMK A01 T10051055  RH  069%=      5-min Rain = 0
KHA3 191326Z 34019KT M00/M06 A3022 RMK A01 T10041055  RH  068%=      5-min Rain = 0
KHA3 191327Z 34019KT M00/M06 A3022 RMK A01 T10041055  RH  068%=      5-min Rain = 0
KHA3 191328Z 34016KT M00/M06 A3023 RMK A01 T10041055  RH  069%=      5-min Rain = 0
KHA3 191329Z 34018KT M01/M06 A3023 RMK A01 T10051055  RH  069%=      5-min Rain = 0
KHA3 191330Z 33017KT M01/M06 A3023 RMK A01 T10051055  RH  069%=      5-min Rain = 0
KHA3 191331Z 33017KT M01/M06 A3023 RMK A01 T10051055  RH  069%=      5-min Rain = 0
KHA3 191332Z 33016KT M01/M06 A3023 RMK A01 T10051055  RH  069%=      5-min Rain = 0
KHA3 191333Z 34015KT M01/M06 A3023 RMK A01 T10051055  RH  069%=      5-min Rain = 0
KHA3 191334Z 33016KT M01/M06 A3023 RMK A01 T10061055  RH  069%=      5-min Rain = 0
KHA3 191335Z 33016KT M01/M06 A3023 RMK A01 T10061055  RH  069%=      5-min Rain = 0
KHA3 191336Z 34017KT M01/M06 A3023 RMK A01 T10061055  RH  069%=      5-min Rain = 0
KHA3 191337Z 33016KT M01/M06 A3023 RMK A01 T10061055  RH  069%=      5-min Rain = 0
KHA3 191338Z 33014KT M01/M06 A3023 RMK A01 T10061055  RH  069%=      5-min Rain = 0
KHA3 191339Z 33014KT M01/M06 A3023 RMK A01 T10061055  RH  070%=      5-min Rain = 0
KHA3 191340Z 33015KT M01/M05 A3023 RMK A01 T10061054  RH  070%=      5-min Rain = 0
KHA3 191341Z 33015KT M01/M06 A3023 RMK A01 T10061055  RH  070%=      5-min Rain = 0
KHA3 191342Z 33015KT M01/M05 A3023 RMK A01 T10061054  RH  070%=      5-min Rain = 0
KHA3 191343Z 34015KT M01/M05 A3023 RMK A01 T10061054  RH  070%=      5-min Rain = 0
KHA3 191344Z 33015KT M01/M05 A3023 RMK A01 T10071054  RH  070%=      5-min Rain = 0
KHA3 191345Z 33014KT M01/M05 A3023 RMK A01 T10071054  RH  070%=      5-min Rain = 0
KHA3 191346Z 33015KT M01/M05 A3023 RMK A01 T10071054  RH  070%=      5-min Rain = 0
KHA3 191347Z 34014KT M01/M06 A3023 RMK A01 T10071055  RH  070%=      5-min Rain = 0
KHA3 191348Z 33014KT M01/M05 A3023 RMK A01 T10071054  RH  070%=      5-min Rain = 0
KHA3 191349Z 33017KT M01/M05 A3023 RMK A01 T10071054  RH  070%=      5-min Rain = 0
KHA3 191350Z 33016KT M01/M06 A3023 RMK A01 T10061055  RH  070%=      5-min Rain = 0
KHA3 191351Z 33015KT M01/M05 A3023 RMK A01 T10061054  RH  070%=      5-min Rain = 0
KHA3 191352Z 33016KT M01/M05 A3023 RMK A01 T10061054  RH  070%=      5-min Rain = 0
KHA3 191353Z 33015KT M01/M06 A3023 RMK A01 T10061055  RH  070%=      5-min Rain = 0
KHA3 191354Z 33014KT M01/M05 A3024 RMK A01 T10061054  RH  070%=      5-min Rain = 0
KHA3 191355Z 33016KT M01/M05 A3024 RMK A01 T10061054  RH  070%=      5-min Rain = 0
KHA3 191356Z 33016KT M01/M06 A3024 RMK A01 T10061055  RH  069%=      5-min Rain = 0
KHA3 191357Z 33014KT M01/M05 A3024 RMK A01 T10051054  RH  069%=      5-min Rain = 0
KHA3 191358Z 33015KT M01/M05 A3024 RMK A01 T10051054  RH  070%=      5-min Rain = 0
KHA3 191359Z 33013KT M01/M05 A3024 RMK A01 T10051054  RH  070%=      5-min Rain = 0
KHA3 191400Z 34015KT M01/M05 A3024 RMK A01 T10051053  RH  070%=      5-min Rain = 0
KHA3 191401Z 33016G21KT M01/M05 A3024 RMK A01 T10051054  RH  070%=      5-min Rain = 0
KHA3 191402Z 33014KT M00/M05 A3024 RMK A01 T10041053  RH  069%=      5-min Rain = 0
KHA3 191403Z 33015KT M00/M05 A3024 RMK A01 T10041053  RH  070%=      5-min Rain = 0
KHA3 191404Z 33018KT M01/M05 A3024 RMK A01 T10051054  RH  069%=      5-min Rain = 0
KHA3 191405Z 33015KT M00/M05 A3024 RMK A01 T10041054  RH  069%=      5-min Rain = 0
KHA3 191406Z 33012KT M00/M05 A3024 RMK A01 T10041053  RH  069%=      5-min Rain = 0
KHA3 191407Z 33015KT M00/M05 A3025 RMK A01 T10041052  RH  070%=      5-min Rain = 0
KHA3 191408Z 33013KT M00/M05 A3025 RMK A01 T10041053  RH  070%=      5-min Rain = 0
KHA3 191409Z 34013KT M00/M05 A3025 RMK A01 T10041052  RH  070%=      5-min Rain = 0
KHA3 191410Z 34015KT M00/M05 A3025 RMK A01 T10041052  RH  070%=      5-min Rain = 0
KHA3 191411Z 33017KT M00/M05 A3025 RMK A01 T10041053  RH  069%=      5-min Rain = 0
KHA3 191412Z 33015KT M00/M05 A3025 RMK A01 T10041054  RH  069%=      5-min Rain = 0
KHA3 191413Z 33014KT M00/M05 A3025 RMK A01 T10041054  RH  069%=      5-min Rain = 0
KHA3 191414Z 33016KT M00/M05 A3025 RMK A01 T10031054  RH  069%=      5-min Rain = 0
KHA3 191415Z 34015KT M00/M05 A3025 RMK A01 T10031053  RH  069%=      5-min Rain = 0
KHA3 191416Z 34014KT M00/M05 A3025 RMK A01 T10031053  RH  069%=      5-min Rain = 0
KHA3 191417Z 34016KT M00/M05 A3025 RMK A01 T10031053  RH  069%=      5-min Rain = 0
KHA3 191418Z 33016KT M00/M05 A3025 RMK A01 T10031053  RH  069%=      5-min Rain = 0
KHA3 191419Z 34016KT M00/M05 A3025 RMK A01 T10031053  RH  069%=      5-min Rain = 0
KHA3 191420Z 34016KT M00/M05 A3025 RMK A01 T10031054  RH  068%=      5-min Rain = 0
KHA3 191421Z 33014KT M00/M05 A3025 RMK A01 T10021053  RH  069%=      5-min Rain = 0
KHA3 191422Z 33017G22KT M00/M05 A3025 RMK A01 T10021053  RH  069%=      5-min Rain = 0
KHA3 191423Z 34015KT M00/M05 A3026 RMK A01 T10021053  RH  068%=      5-min Rain = 0
KHA3 191424Z 33014KT M00/M05 A3026 RMK A01 T10021053  RH  069%=      5-min Rain = 0
KHA3 191425Z 33018KT M00/M05 A3026 RMK A01 T10011052  RH  069%=      5-min Rain = 0
KHA3 191426Z 34015KT M00/M05 A3026 RMK A01 T10011053  RH  068%=      5-min Rain = 0
KHA3 191427Z 34015KT M00/M05 A3026 RMK A01 T10011052  RH  068%=      5-min Rain = 0
KHA3 191428Z 33015KT M00/M05 A3026 RMK A01 T10011052  RH  068%=      5-min Rain = 0
KHA3 191429Z 33017KT M00/M05 A3026 RMK A01 T10011052  RH  068%=      5-min Rain = 0
KHA3 191430Z 33018KT 00/05 A3026 RMK A01 T00-00-53  RH  068%=      5-min Rain = 0
KHA3 191431Z 34016KT 00/05 A3026 RMK A01 T00000-53  RH  067%=      5-min Rain = 0
KHA3 191432Z 33016KT 00/05 A3026 RMK A01 T00-00-53  RH  067%=      5-min Rain = 0
KHA3 191433Z 34014KT 00/05 A3026 RMK A01 T00000-52  RH  068%=      5-min Rain = 0
KHA3 191434Z 33015KT 00/05 A3026 RMK A01 T00000-52  RH  068%=      5-min Rain = 0
KHA3 191435Z 33017KT 00/05 A3026 RMK A01 T00000-52  RH  068%=      5-min Rain = 0
KHA3 191436Z 34017KT 00/M05 A3027 RMK A01 T00011053  RH  067%=      5-min Rain = 0
KHA3 191437Z 34018KT 00/M05 A3027 RMK A01 T00011053  RH  067%=      5-min Rain = 0
KHA3 191438Z 34013KT 00/M05 A3027 RMK A01 T00011052  RH  067%=      5-min Rain = 0
KHA3 191439Z 34017G22KT 00/M05 A3027 RMK A01 T00011050  RH  068%=      5-min Rain = 0
KHA3 191440Z 33016KT 00/M05 A3027 RMK A01 T00011053  RH  067%=      5-min Rain = 0
KHA3 191441Z 34015KT 00/M05 A3027 RMK A01 T00021052  RH  067%=      5-min Rain = 0
KHA3 191442Z 34014KT 00/M05 A3027 RMK A01 T00021052  RH  067%=      5-min Rain = 0
KHA3 191443Z 34015KT 00/M05 A3027 RMK A01 T00021051  RH  067%=      5-min Rain = 0
KHA3 191444Z 33017KT 00/M05 A3027 RMK A01 T00021052  RH  067%=      5-min Rain = 0
KHA3 191445Z 34016KT 00/M05 A3027 RMK A01 T00031052  RH  067%=      5-min Rain = 0
KHA3 191446Z 34017KT 00/M05 A3027 RMK A01 T00031052  RH  066%=      5-min Rain = 0
KHA3 191447Z 34015KT 00/M05 A3027 RMK A01 T00031053  RH  066%=      5-min Rain = 0
KHA3 191448Z 34013KT 00/M05 A3027 RMK A01 T00031052  RH  067%=      5-min Rain = 0
KHA3 191449Z 34014KT 00/M05 A3027 RMK A01 T00031051  RH  067%=      5-min Rain = 0
KHA3 191450Z 34012KT 00/M05 A3027 RMK A01 T00041050  RH  067%=      5-min Rain = 0
KHA3 191451Z 34012KT 00/M05 A3027 RMK A01 T00041049  RH  068%=      5-min Rain = 0
KHA3 191452Z 33015KT 00/M05 A3028 RMK A01 T00041050  RH  067%=      5-min Rain = 0
KHA3 191453Z 34014KT 00/M05 A3028 RMK A01 T00041051  RH  066%=      5-min Rain = 0
KHA3 191454Z 34016KT 00/M05 A3028 RMK A01 T00041050  RH  067%=      5-min Rain = 0
KHA3 191455Z 35018KT 01/M05 A3028 RMK A01 T00051051  RH  066%=      5-min Rain = 0
KHA3 191456Z 34016KT 01/M05 A3028 RMK A01 T00051051  RH  066%=      5-min Rain = 0
KHA3 191457Z 33017G22KT 01/M05 A3028 RMK A01 T00051051  RH  066%=      5-min Rain = 0
KHA3 191458Z 34014KT 01/M05 A3028 RMK A01 T00051050  RH  067%=      5-min Rain = 0
KHA3 191459Z 34017KT 01/M05 A3028 RMK A01 T00051050  RH  066%=      5-min Rain = 0
KHA3 191500Z 34019KT 01/M05 A3028 RMK A01 T00051050  RH  066%=      5-min Rain = 0
KHA3 191501Z 34017KT 01/M05 A3028 RMK A01 T00061050  RH  066%=      5-min Rain = 0
KHA3 191502Z 34016G21KT 01/M05 A3028 RMK A01 T00061050  RH  066%=      5-min Rain = 0
KHA3 191503Z 33017KT 01/M05 A3028 RMK A01 T00061051  RH  066%=      5-min Rain = 0
KHA3 191504Z 34016KT 01/M05 A3028 RMK A01 T00061050  RH  066%=      5-min Rain = 0
KHA3 191505Z 33018KT 01/M05 A3028 RMK A01 T00071049  RH  067%=      5-min Rain = 0
KHA3 191506Z 33017KT 01/M05 A3028 RMK A01 T00071050  RH  066%=      5-min Rain = 0
KHA3 191507Z 33019KT 01/M05 A3028 RMK A01 T00071050  RH  066%=      5-min Rain = 0
KHA3 191508Z 34017KT 01/M05 A3028 RMK A01 T00071049  RH  066%=      5-min Rain = 0
KHA3 191509Z 34018KT 01/M05 A3028 RMK A01 T00081049  RH  066%=      5-min Rain = 0
KHA3 191510Z 34022G28KT 01/M05 A3029 RMK A01 T00081049  RH  065%=      5-min Rain = 0
KHA3 191511Z 33018G24KT 01/M05 A3028 RMK A01 T00081052  RH  064%=      5-min Rain = 0
KHA3 191512Z 34019KT 01/M05 A3029 RMK A01 T00091050  RH  065%=      5-min Rain = 0
KHA3 191513Z 34018KT 01/M05 A3029 RMK A01 T00091050  RH  065%=      5-min Rain = 0
KHA3 191514Z 33019KT 01/M05 A3029 RMK A01 T00091050  RH  064%=      5-min Rain = 0
KHA3 191515Z 33016G21KT 01/M05 A3029 RMK A01 T00101049  RH  065%=      5-min Rain = 0
KHA3 191516Z 33019KT 01/M05 A3029 RMK A01 T00111050  RH  064%=      5-min Rain = 0
KHA3 191517Z 34022KT 01/M05 A3029 RMK A01 T00111051  RH  063%=      5-min Rain = 0
KHA3 191518Z 34017KT 01/M05 A3029 RMK A01 T00111052  RH  063%=      5-min Rain = 0
KHA3 191519Z 34015KT 01/M05 A3029 RMK A01 T00121048  RH  064%=      5-min Rain = 0
KHA3 191520Z 34019KT 01/M05 A3029 RMK A01 T00131048  RH  064%=      5-min Rain = 0
KHA3 191521Z 33020KT 01/M05 A3029 RMK A01 T00131051  RH  063%=      5-min Rain = 0
KHA3 191522Z 33020G26KT 01/M05 A3029 RMK A01 T00131052  RH  062%=      5-min Rain = 0
KHA3 191523Z 34019KT 01/M05 A3029 RMK A01 T00121052  RH  062%=      5-min Rain = 0
KHA3 191524Z 34022G27KT 01/M05 A303 RMK A01 T00121052  RH  062%=      5-min Rain = 0
KHA3 191525Z 34022KT 01/M05 A303 RMK A01 T00121054  RH  061%=      5-min Rain = 0
KHA3 191526Z 34020KT 01/M05 A303 RMK A01 T00131054  RH  061%=      5-min Rain = 0
KHA3 191527Z 34018KT 01/M05 A303 RMK A01 T00131052  RH  062%=      5-min Rain = 0
KHA3 191528Z 34019KT 01/M05 A303 RMK A01 T00141051  RH  062%=      5-min Rain = 0
KHA3 191529Z 34021KT 01/M05 A303 RMK A01 T00141051  RH  062%=      5-min Rain = 0
KHA3 191530Z 34023KT 01/M05 A303 RMK A01 T00141053  RH  061%=      5-min Rain = 0
KHA3 191531Z 34021KT 01/M05 A303 RMK A01 T00141052  RH  061%=      5-min Rain = 0
KHA3 191532Z 34016KT 01/M05 A303 RMK A01 T00141051  RH  062%=      5-min Rain = 0
KHA3 191533Z 34015KT 02/M05 A303 RMK A01 T00161046  RH  063%=      5-min Rain = 0
KHA3 191534Z 34018KT 02/M05 A303 RMK A01 T00171046  RH  063%=      5-min Rain = 0
KHA3 191535Z 33015KT 02/M05 A303 RMK A01 T00171045  RH  063%=      5-min Rain = 0
KHA3 191536Z 33017KT 02/M05 A303 RMK A01 T00181045  RH  063%=      5-min Rain = 0
KHA3 191537Z 33017KT 02/M05 A303 RMK A01 T00181048  RH  061%=      5-min Rain = 0
KHA3 191538Z 33016KT 02/M05 A303 RMK A01 T00171047  RH  062%=      5-min Rain = 0
KHA3 191539Z 34017KT 02/M05 A303 RMK A01 T00181046  RH  062%=      5-min Rain = 0
KHA3 191540Z 34018G23KT 02/M05 A3031 RMK A01 T00181045  RH  063%=      5-min Rain = 0
KHA3 191541Z 34021G26KT 02/M05 A3031 RMK A01 T00191047  RH  061%=      5-min Rain = 0
KHA3 191542Z 34023KT 02/M05 A3031 RMK A01 T00181051  RH  060%=      5-min Rain = 0
KHA3 191543Z 33021G26KT 02/M05 A3031 RMK A01 T00181052  RH  060%=      5-min Rain = 0
KHA3 191544Z 33020KT 02/M05 A3031 RMK A01 T00181051  RH  060%=      5-min Rain = 0
KHA3 191545Z 34023KT 02/M05 A3031 RMK A01 T00191050  RH  060%=      5-min Rain = 0
KHA3 191546Z 34024G32KT 02/M05 A3031 RMK A01 T00191053  RH  059%=      5-min Rain = 0
KHA3 191547Z 34028KT 02/M06 A3031 RMK A01 T00191057  RH  057%=      5-min Rain = 0
KHA3 191548Z 34023KT 02/M06 A3031 RMK A01 T00181058  RH  057%=      5-min Rain = 0
KHA3 191549Z 34021G26KT 02/M06 A3031 RMK A01 T00181058  RH  057%=      5-min Rain = 0
KHA3 191550Z 33024G29KT 02/M06 A3031 RMK A01 T00181057  RH  057%=      5-min Rain = 0
KHA3 191551Z 34021KT 02/M06 A3031 RMK A01 T00191058  RH  057%=      5-min Rain = 0
KHA3 191552Z 33020KT 02/M06 A3031 RMK A01 T00201057  RH  057%=      5-min Rain = 0
KHA3 191553Z 33022KT 02/M06 A3031 RMK A01 T00201056  RH  057%=      5-min Rain = 0
KHA3 191554Z 34019KT 02/M06 A3031 RMK A01 T00201057  RH  057%=      5-min Rain = 0
KHA3 191555Z 34018G24KT 02/M06 A3031 RMK A01 T00201055  RH  057%=      5-min Rain = 0
KHA3 191556Z 34018KT 02/M05 A3031 RMK A01 T00211054  RH  058%=      5-min Rain = 0
KHA3 191557Z 33018G23KT 02/M05 A3031 RMK A01 T00221053  RH  058%=      5-min Rain = 0
KHA3 191558Z 34022KT 02/M06 A3031 RMK A01 T00231055  RH  056%=      5-min Rain = 0
KHA3 191559Z 34024KT 02/M06 A3031 RMK A01 T00221057  RH  056%=      5-min Rain = 0
KHA3 191600Z 34020G25KT 02/M06 A3031 RMK A01 T00211060  RH  055%=      5-min Rain = 0
KHA3 191601Z 35018G24KT 02/M06 A3031 RMK A01 T00211058  RH  056%=      5-min Rain = 0
KHA3 191602Z 34018KT 02/M06 A3031 RMK A01 T00231055  RH  056%=      5-min Rain = 0
KHA3 191603Z 35024G29KT 02/M06 A3031 RMK A01 T00241057  RH  055%=      5-min Rain = 0
KHA3 191604Z 34027KT 02/M06 A3032 RMK A01 T00231062  RH  053%=      5-min Rain = 0
KHA3 191605Z 34026G32KT 02/M07 A3032 RMK A01 T00211065  RH  053%=      5-min Rain = 0
KHA3 191606Z 34023KT 02/M07 A3032 RMK A01 T00201065  RH  053%=      5-min Rain = 0
KHA3 191607Z 34024KT 02/M06 A3032 RMK A01 T00201063  RH  054%=      5-min Rain = 0
KHA3 191608Z 35023G28KT 02/M06 A3032 RMK A01 T00211062  RH  054%=      5-min Rain = 0
KHA3 191609Z 35025KT 02/M06 A3032 RMK A01 T00221062  RH  054%=      5-min Rain = 0
KHA3 191610Z 34025G32KT 02/M06 A3032 RMK A01 T00211063  RH  054%=      5-min Rain = 0
KHA3 191611Z 34025KT 02/M06 A3032 RMK A01 T00211063  RH  054%=      5-min Rain = 0
KHA3 191612Z 34024KT 02/M06 A3032 RMK A01 T00211063  RH  054%=      5-min Rain = 0
KHA3 191613Z 34024KT 02/M06 A3032 RMK A01 T00211064  RH  053%=      5-min Rain = 0
KHA3 191614Z 34025G31KT 02/M06 A3032 RMK A01 T00211064  RH  053%=      5-min Rain = 0
KHA3 191615Z 33026G31KT 02/M06 A3032 RMK A01 T00211064  RH  053%=      5-min Rain = 0
KHA3 191616Z 33022G28KT 02/M06 A3032 RMK A01 T00211063  RH  054%=      5-min Rain = 0
KHA3 191617Z 34018KT 02/M06 A3032 RMK A01 T00221061  RH  054%=      5-min Rain = 0
KHA3 191618Z 35022KT 03/M06 A3032 RMK A01 T00251058  RH  054%=      5-min Rain = 0
KHA3 191619Z 35023KT 03/M06 A3032 RMK A01 T00251061  RH  053%=      5-min Rain = 0
KHA3 191620Z 35025KT 03/M06 A3032 RMK A01 T00251062  RH  053%=      5-min Rain = 0
KHA3 191621Z 35026KT 02/M06 A3032 RMK A01 T00241063  RH  052%=      5-min Rain = 0
KHA3 191622Z 35023G28KT 02/M06 A3032 RMK A01 T00241063  RH  053%=      5-min Rain = 0
KHA3 191623Z 35018KT 03/M06 A3032 RMK A01 T00251059  RH  054%=      5-min Rain = 0
KHA3 191624Z 34022KT 03/M06 A3032 RMK A01 T00281058  RH  053%=      5-min Rain = 0
KHA3 191625Z 34026KT 03/M06 A3032 RMK A01 T00281059  RH  053%=      5-min Rain = 0
KHA3 191626Z 34024KT 03/M06 A3032 RMK A01 T00271062  RH  052%=      5-min Rain = 0
KHA3 191627Z 34027G32KT 03/M06 A3032 RMK A01 T00261064  RH  052%=      5-min Rain = 0
KHA3 191628Z 35024G30KT 03/M06 A3032 RMK A01 T00251064  RH  052%=      5-min Rain = 0
KHA3 191629Z 34024KT 03/M06 A3032 RMK A01 T00271062  RH  052%=      5-min Rain = 0
KHA3 191630Z 34021G26KT 03/M06 A3032 RMK A01 T00271062  RH  052%=      5-min Rain = 0
KHA3 191631Z 35021G27KT 03/M06 A3032 RMK A01 T00281061  RH  052%=      5-min Rain = 0
KHA3 191632Z 34022KT 03/M06 A3032 RMK A01 T00281062  RH  052%=      5-min Rain = 0
KHA3 191633Z 34024KT 03/M06 A3032 RMK A01 T00281062  RH  051%=      5-min Rain = 0
KHA3 191634Z 34023G28KT 03/M06 A3032 RMK A01 T00281062  RH  051%=      5-min Rain = 0
KHA3 191635Z 34026G31KT 03/M06 A3032 RMK A01 T00291061  RH  051%=      5-min Rain = 0
KHA3 191636Z 34023KT 03/M06 A3032 RMK A01 T00291064  RH  050%=      5-min Rain = 0
KHA3 191637Z 34026KT 03/M06 A3032 RMK A01 T00281063  RH  051%=      5-min Rain = 0
KHA3 191638Z 34025KT 03/M06 A3032 RMK A01 T00281063  RH  051%=      5-min Rain = 0
KHA3 191639Z 34022KT 03/M06 A3032 RMK A01 T00281063  RH  051%=      5-min Rain = 0
KHA3 191640Z 34019KT 03/M06 A3032 RMK A01 T00291060  RH  052%=      5-min Rain = 0
KHA3 191641Z 33020G25KT 03/M06 A3032 RMK A01 T00311058  RH  052%=      5-min Rain = 0
KHA3 191642Z 33022KT 03/M06 A3032 RMK A01 T00331059  RH  051%=      5-min Rain = 0
KHA3 191643Z 34023KT 03/M06 A3032 RMK A01 T00331060  RH  050%=      5-min Rain = 0
KHA3 191644Z 34020G25KT 03/M06 A3032 RMK A01 T00331060  RH  050%=      5-min Rain = 0
KHA3 191645Z 34019G25KT 03/M06 A3032 RMK A01 T00331060  RH  051%=      5-min Rain = 0
KHA3 191646Z 34021KT 03/M06 A3033 RMK A01 T00341058  RH  051%=      5-min Rain = 0
KHA3 191647Z 33018KT 04/M06 A3033 RMK A01 T00351058  RH  050%=      5-min Rain = 0
KHA3 191648Z 33022G31KT 04/M06 A3033 RMK A01 T00371058  RH  050%=      5-min Rain = 0
KHA3 191649Z 35024G30KT 04/M06 A3033 RMK A01 T00361062  RH  049%=      5-min Rain = 0
KHA3 191650Z 35026KT 03/M07 A3033 RMK A01 T00341066  RH  048%=      5-min Rain = 0
KHA3 191651Z 35022KT 03/M07 A3033 RMK A01 T00311067  RH  048%=      5-min Rain = 0
KHA3 191652Z 34023KT 03/M07 A3033 RMK A01 T00321065  RH  049%=      5-min Rain = 0
KHA3 191653Z 34022KT 03/M06 A3033 RMK A01 T00331064  RH  049%=      5-min Rain = 0
KHA3 191654Z 34026KT 03/M07 A3033 RMK A01 T00341065  RH  048%=      5-min Rain = 0
KHA3 191655Z 36022G27KT 03/M07 A3033 RMK A01 T00341065  RH  048%=      5-min Rain = 0
KHA3 191656Z 35022G27KT 03/M06 A3033 RMK A01 T00341064  RH  049%=      5-min Rain = 0
KHA3 191657Z 35024G29KT 04/M07 A3033 RMK A01 T00351065  RH  048%=      5-min Rain = 0
KHA3 191658Z 36021G27KT 03/M07 A3033 RMK A01 T00341066  RH  048%=      5-min Rain = 0
KHA3 191659Z 35022KT 04/M07 A3033 RMK A01 T00351065  RH  048%=      5-min Rain = 0
KHA3 191700Z 34023KT 04/M07 A3033 RMK A01 T00351066  RH  048%=      5-min Rain = 0
KHA3 191701Z 35022G27KT 03/M07 A3033 RMK A01 T00341067  RH  048%=      5-min Rain = 0
KHA3 191702Z 35024KT 03/M07 A3033 RMK A01 T00341066  RH  048%=      5-min Rain = 0
KHA3 191703Z 36022G27KT 03/M07 A3033 RMK A01 T00341065  RH  048%=      5-min Rain = 0
KHA3 191704Z 34022KT 04/M06 A3033 RMK A01 T00361061  RH  049%=      5-min Rain = 0
KHA3 191705Z 34022KT 04/M06 A3033 RMK A01 T00371063  RH  048%=      5-min Rain = 0
KHA3 191706Z 34021KT 04/M06 A3033 RMK A01 T00361063  RH  048%=      5-min Rain = 0
KHA3 191707Z 34024KT 04/M06 A3033 RMK A01 T00371063  RH  048%=      5-min Rain = 0
KHA3 191708Z 34022KT 04/M06 A3033 RMK A01 T00371063  RH  048%=      5-min Rain = 0
KHA3 191709Z 35021KT 04/M06 A3032 RMK A01 T00371062  RH  049%=      5-min Rain = 0
KHA3 191710Z 35024KT 04/M06 A3032 RMK A01 T00381062  RH  048%=      5-min Rain = 0
KHA3 191711Z 35024KT 04/M06 A3033 RMK A01 T00361064  RH  048%=      5-min Rain = 0
KHA3 191712Z 35020G26KT 04/M06 A3033 RMK A01 T00361062  RH  049%=      5-min Rain = 0
KHA3 191713Z 35022G27KT 04/M06 A3033 RMK A01 T00391059  RH  049%=      5-min Rain = 0
KHA3 191714Z 34023KT 04/M06 A3033 RMK A01 T00391061  RH  048%=      5-min Rain = 0
KHA3 191715Z 34023KT 04/M06 A3033 RMK A01 T00371063  RH  048%=      5-min Rain = 0
KHA3 191716Z 34020KT 04/M06 A3033 RMK A01 T00371063  RH  048%=      5-min Rain = 0
KHA3 191717Z 35019KT 04/M06 A3033 RMK A01 T00381059  RH  049%=      5-min Rain = 0
KHA3 191718Z 34017KT 04/M06 A3033 RMK A01 T00391060  RH  048%=      5-min Rain = 0
KHA3 191719Z 34017KT 04/M06 A3033 RMK A01 T00411058  RH  049%=      5-min Rain = 0
KHA3 191720Z 34017KT 04/M06 A3033 RMK A01 T00431056  RH  048%=      5-min Rain = 0
KHA3 191721Z 34019KT 04/M06 A3033 RMK A01 T00431058  RH  048%=      5-min Rain = 0
KHA3 191722Z 34016G22KT 04/M06 A3033 RMK A01 T00401061  RH  048%=      5-min Rain = 0
KHA3 191723Z 34019KT 04/M06 A3033 RMK A01 T00411057  RH  049%=      5-min Rain = 0
KHA3 191724Z 34017KT 04/M06 A3033 RMK A01 T00431057  RH  048%=      5-min Rain = 0
KHA3 191725Z 34016KT 04/M06 A3033 RMK A01 T00431057  RH  048%=      5-min Rain = 0
KHA3 191726Z 35018KT 04/M06 A3033 RMK A01 T00441057  RH  048%=      5-min Rain = 0
KHA3 191727Z 34019KT 04/M06 A3033 RMK A01 T00441057  RH  048%=      5-min Rain = 0
KHA3 191728Z 33024G29KT 04/M06 A3033 RMK A01 T00441057  RH  048%=      5-min Rain = 0
KHA3 191729Z 33024G29KT 04/M06 A3033 RMK A01 T00411063  RH  047%=      5-min Rain = 0
KHA3 191730Z 34021KT 04/M06 A3033 RMK A01 T00401060  RH  048%=      5-min Rain = 0
KHA3 191731Z 33020G25KT 04/M06 A3033 RMK A01 T00411059  RH  048%=      5-min Rain = 0
KHA3 191732Z 35021KT 04/M06 A3033 RMK A01 T00421059  RH  048%=      5-min Rain = 0
KHA3 191733Z 34021KT 04/M06 A3033 RMK A01 T00421059  RH  047%=      5-min Rain = 0
KHA3 191734Z 35022G28KT 04/M06 A3033 RMK A01 T00421060  RH  048%=      5-min Rain = 0
KHA3 191735Z 34023G28KT 04/M06 A3033 RMK A01 T00421060  RH  047%=      5-min Rain = 0
KHA3 191736Z 35018KT 04/M06 A3033 RMK A01 T00421060  RH  047%=      5-min Rain = 0
KHA3 191737Z 35020KT 04/M06 A3033 RMK A01 T00431058  RH  048%=      5-min Rain = 0
KHA3 191738Z 34022KT 04/M06 A3033 RMK A01 T00441059  RH  047%=      5-min Rain = 0
KHA3 191739Z 34021KT 04/M06 A3033 RMK A01 T00431061  RH  047%=      5-min Rain = 0
KHA3 191740Z 35021G26KT 04/M06 A3033 RMK A01 T00441059  RH  047%=      5-min Rain = 0
KHA3 191741Z 35022KT 04/M06 A3033 RMK A01 T00441060  RH  047%=      5-min Rain = 0
KHA3 191742Z 35023KT 04/M06 A3033 RMK A01 T00441060  RH  047%=      5-min Rain = 0
KHA3 191743Z 34023KT 05/M06 A3033 RMK A01 T00451059  RH  047%=      5-min Rain = 0
KHA3 191744Z 33021KT 04/M06 A3033 RMK A01 T00441061  RH  046%=      5-min Rain = 0
KHA3 191745Z 34022KT 05/M06 A3033 RMK A01 T00461058  RH  047%=      5-min Rain = 0
KHA3 191746Z 34022KT 05/M06 A3033 RMK A01 T00471059  RH  046%=      5-min Rain = 0
KHA3 191747Z 33019G26KT 05/M06 A3033 RMK A01 T00461059  RH  046%=      5-min Rain = 0
KHA3 191748Z 33021KT 05/M06 A3032 RMK A01 T00471060  RH  046%=      5-min Rain = 0
KHA3 191749Z 32020KT 05/M06 A3032 RMK A01 T00461060  RH  046%=      5-min Rain = 0
KHA3 191750Z 33021KT 05/M06 A3032 RMK A01 T00461059  RH  046%=      5-min Rain = 0
KHA3 191751Z 35020KT 05/M06 A3032 RMK A01 T00481057  RH  047%=      5-min Rain = 0
KHA3 191752Z 34021KT 05/M06 A3033 RMK A01 T00501055  RH  046%=      5-min Rain = 0
KHA3 191753Z 34020G25KT 05/M06 A3032 RMK A01 T00511057  RH  046%=      5-min Rain = 0
KHA3 191754Z 35020G25KT 05/M06 A3032 RMK A01 T00511058  RH  045%=      5-min Rain = 0
KHA3 191755Z 34021KT 05/M06 A3032 RMK A01 T00511057  RH  046%=      5-min Rain = 0
KHA3 191756Z 34020KT 05/M06 A3032 RMK A01 T00511059  RH  045%=      5-min Rain = 0
KHA3 191757Z 34020KT 05/M06 A3032 RMK A01 T00511055  RH  046%=      5-min Rain = 0
KHA3 191758Z 33023KT 05/M06 A3032 RMK A01 T00541055  RH  046%=      5-min Rain = 0
KHA3 191759Z 34021KT 05/M06 A3032 RMK A01 T00501059  RH  045%=      5-min Rain = 0
KHA3 191800Z 34019KT 05/M06 A3032 RMK A01 T00491059  RH  046%=      5-min Rain = 0
KHA3 191801Z 33020KT 05/M06 A3032 RMK A01 T00501056  RH  046%=      5-min Rain = 0
KHA3 191802Z 33018G23KT 05/M06 A3032 RMK A01 T00501058  RH  045%=      5-min Rain = 0
KHA3 191803Z 33019G24KT 05/M06 A3032 RMK A01 T00491057  RH  046%=      5-min Rain = 0
KHA3 191804Z 34019KT 05/M06 A3032 RMK A01 T00511055  RH  046%=      5-min Rain = 0
KHA3 191805Z 33022KT 05/M06 A3032 RMK A01 T00521056  RH  046%=      5-min Rain = 0
KHA3 191806Z 33021KT 05/M06 A3032 RMK A01 T00501057  RH  046%=      5-min Rain = 0
KHA3 191807Z 33020G25KT 05/M06 A3032 RMK A01 T00501056  RH  046%=      5-min Rain = 0
KHA3 191808Z 33021KT 05/M06 A3032 RMK A01 T00511056  RH  046%=      5-min Rain = 0
KHA3 191809Z 33017KT 05/M06 A3032 RMK A01 T00501056  RH  046%=      5-min Rain = 0
KHA3 191810Z 32019KT 05/M06 A3031 RMK A01 T00511055  RH  046%=      5-min Rain = 0
KHA3 191811Z 33021KT 05/M06 A3031 RMK A01 T00511057  RH  046%=      5-min Rain = 0
KHA3 191812Z 34018KT 05/M06 A3032 RMK A01 T00511057  RH  046%=      5-min Rain = 0
KHA3 191813Z 35019G24KT 05/M05 A3032 RMK A01 T00531054  RH  046%=      5-min Rain = 0
KHA3 191814Z 35020KT 05/M06 A3031 RMK A01 T00541055  RH  045%=      5-min Rain = 0
KHA3 191815Z 34019KT 05/M06 A3031 RMK A01 T00531059  RH  044%=      5-min Rain = 0
KHA3 191816Z 33018KT 05/M06 A3031 RMK A01 T00531056  RH  046%=      5-min Rain = 0
KHA3 191817Z 33018KT 05/M06 A3031 RMK A01 T00541055  RH  045%=      5-min Rain = 0
KHA3 191818Z 34017KT 05/M06 A3031 RMK A01 T00531056  RH  045%=      5-min Rain = 0
KHA3 191819Z 35017G22KT 05/M06 A3031 RMK A01 T00541055  RH  045%=      5-min Rain = 0
KHA3 191820Z 35016G21KT 06/M05 A3031 RMK A01 T00561053  RH  045%=      5-min Rain = 0
KHA3 191821Z 35014G19KT 06/M06 A3031 RMK A01 T00561055  RH  045%=      5-min Rain = 0
KHA3 191822Z 36020KT 06/M05 A3031 RMK A01 T00571053  RH  045%=      5-min Rain = 0
KHA3 191823Z 36017G22KT 06/M06 A3031 RMK A01 T00571055  RH  044%=      5-min Rain = 0
KHA3 191824Z 35018KT 06/M05 A3031 RMK A01 T00581052  RH  045%=      5-min Rain = 0
KHA3 191825Z 35020KT 06/M05 A3031 RMK A01 T00591053  RH  044%=      5-min Rain = 0
KHA3 191826Z 33017KT 06/M05 A3031 RMK A01 T00591052  RH  045%=      5-min Rain = 0
KHA3 191827Z 32019KT 06/M05 A303 RMK A01 T00601050  RH  045%=      5-min Rain = 0
KHA3 191828Z 32019KT 06/M06 A303 RMK A01 T00571056  RH  044%=      5-min Rain = 0
KHA3 191829Z 32021KT 06/M05 A303 RMK A01 T00561053  RH  045%=      5-min Rain = 0
KHA3 191830Z 33020G25KT 06/M05 A303 RMK A01 T00561054  RH  045%=      5-min Rain = 0
KHA3 191831Z 32019G24KT 06/M05 A303 RMK A01 T00571053  RH  045%=      5-min Rain = 0
KHA3 191832Z 33015KT 06/M05 A303 RMK A01 T00581052  RH  045%=      5-min Rain = 0
KHA3 191833Z 33020G25KT 06/M05 A303 RMK A01 T00581052  RH  045%=      5-min Rain = 0
KHA3 191834Z 33019KT 06/M05 A303 RMK A01 T00591053  RH  044%=      5-min Rain = 0
KHA3 191835Z 33022KT 06/M05 A303 RMK A01 T00601052  RH  044%=      5-min Rain = 0
KHA3 191836Z 33022KT 06/M06 A303 RMK A01 T00571055  RH  044%=      5-min Rain = 0
KHA3 191837Z 32023KT 06/M05 A303 RMK A01 T00561054  RH  045%=      5-min Rain = 0
KHA3 191838Z 32020KT 06/M05 A303 RMK A01 T00561053  RH  045%=      5-min Rain = 0
KHA3 191839Z 32021KT 06/M05 A303 RMK A01 T00581052  RH  045%=      5-min Rain = 0
KHA3 191840Z 33020KT 06/M05 A303 RMK A01 T00581052  RH  045%=      5-min Rain = 0
KHA3 191841Z 33021KT 06/M05 A303 RMK A01 T00571053  RH  045%=      5-min Rain = 0
KHA3 191842Z 33019KT 06/M05 A303 RMK A01 T00581051  RH  045%=      5-min Rain = 0
KHA3 191843Z 34021G26KT 06/M05 A303 RMK A01 T00621048  RH  045%=      5-min Rain = 0
KHA3 191844Z 34022KT 06/M05 A303 RMK A01 T00621051  RH  044%=      5-min Rain = 0
KHA3 191845Z 34017KT 06/M06 A303 RMK A01 T00591055  RH  044%=      5-min Rain = 0
KHA3 191846Z 33021KT 06/M05 A303 RMK A01 T00591052  RH  045%=      5-min Rain = 0
KHA3 191847Z 32022KT 06/M05 A303 RMK A01 T00591053  RH  044%=      5-min Rain = 0
KHA3 191848Z 32020KT 06/M05 A303 RMK A01 T00571054  RH  045%=      5-min Rain = 0
KHA3 191849Z 33018G23KT 06/M05 A303 RMK A01 T00571053  RH  045%=      5-min Rain = 0
KHA3 191850Z 32018G24KT 06/M05 A303 RMK A01 T00561053  RH  045%=      5-min Rain = 0
KHA3 191851Z 32022KT 06/M05 A303 RMK A01 T00561052  RH  046%=      5-min Rain = 0
KHA3 191852Z 33021KT 06/M05 A303 RMK A01 T00571052  RH  045%=      5-min Rain = 0
KHA3 191853Z 34018KT 06/M05 A303 RMK A01 T00581052  RH  045%=      5-min Rain = 0
KHA3 191854Z 35020KT 06/M05 A303 RMK A01 T00601050  RH  045%=      5-min Rain = 0
KHA3 191855Z 35022G27KT 06/M05 A303 RMK A01 T00611052  RH  044%=      5-min Rain = 0
KHA3 191856Z 34019G24KT 06/M05 A303 RMK A01 T00591052  RH  045%=      5-min Rain = 0
KHA3 191857Z 34017KT 06/M05 A303 RMK A01 T00611049  RH  045%=      5-min Rain = 0
KHA3 191858Z 33019KT 06/M05 A303 RMK A01 T00631049  RH  045%=      5-min Rain = 0
KHA3 191859Z 34016KT 06/M05 A303 RMK A01 T00621048  RH  045%=      5-min Rain = 0
KHA3 191900Z 33019G24KT 06/M05 A303 RMK A01 T00631049  RH  045%=      5-min Rain = 0
KHA3 191901Z 33018G23KT 06/M05 A303 RMK A01 T00631049  RH  045%=      5-min Rain = 0
KHA3 191902Z 33020KT 06/M05 A303 RMK A01 T00641049  RH  044%=      5-min Rain = 0
KHA3 191903Z 34022G27KT 06/M05 A303 RMK A01 T00631051  RH  044%=      5-min Rain = 0
KHA3 191904Z 34021G26KT 06/M05 A303 RMK A01 T00601052  RH  044%=      5-min Rain = 0
KHA3 191905Z 34019KT 06/M05 A303 RMK A01 T00601051  RH  045%=      5-min Rain = 0
KHA3 191906Z 34019KT 06/M05 A303 RMK A01 T00601050  RH  045%=      5-min Rain = 0
KHA3 191907Z 34021KT 06/M05 A303 RMK A01 T00601051  RH  045%=      5-min Rain = 0
KHA3 191908Z 34021KT 06/M05 A303 RMK A01 T00611051  RH  044%=      5-min Rain = 0
KHA3 191909Z 34017G22KT 06/M05 A303 RMK A01 T00611050  RH  045%=      5-min Rain = 0
KHA3 191910Z 34022KT 06/M05 A303 RMK A01 T00641047  RH  045%=      5-min Rain = 0
KHA3 191911Z 34020KT 06/M05 A303 RMK A01 T00631051  RH  044%=      5-min Rain = 0
KHA3 191912Z 34018G24KT 06/M05 A303 RMK A01 T00621049  RH  045%=      5-min Rain = 0
KHA3 191913Z 33019G26KT 06/M05 A303 RMK A01 T00621050  RH  044%=      5-min Rain = 0
KHA3 191914Z 33019G24KT 06/M05 A303 RMK A01 T00611050  RH  045%=      5-min Rain = 0
KHA3 191915Z 33018KT 06/M05 A3029 RMK A01 T00621048  RH  045%=      5-min Rain = 0
KHA3 191916Z 34018KT 06/M05 A3029 RMK A01 T00631047  RH  045%=      5-min Rain = 0
KHA3 191917Z 34019KT 06/M05 A3029 RMK A01 T00631048  RH  045%=      5-min Rain = 0
KHA3 191918Z 33021KT 06/M05 A3029 RMK A01 T00641047  RH  045%=      5-min Rain = 0
KHA3 191919Z 33020KT 07/M05 A3029 RMK A01 T00651047  RH  045%=      5-min Rain = 0
KHA3 191920Z 33018KT 06/M05 A303 RMK A01 T00631048  RH  045%=      5-min Rain = 0
KHA3 191921Z 31019KT 06/M05 A3029 RMK A01 T00611049  RH  045%=      5-min Rain = 0
KHA3 191922Z 33019G29KT 06/M05 A3029 RMK A01 T00611047  RH  046%=      5-min Rain = 0
KHA3 191923Z 34025G30KT 06/M05 A3029 RMK A01 T00631046  RH  045%=      5-min Rain = 0
KHA3 191924Z 34021KT 07/M05 A3029 RMK A01 T00651048  RH  044%=      5-min Rain = 0
KHA3 191925Z 33019KT 06/M05 A3029 RMK A01 T00641050  RH  044%=      5-min Rain = 0
KHA3 191926Z 32017KT 06/M05 A3029 RMK A01 T00631050  RH  044%=      5-min Rain = 0
KHA3 191927Z 34016KT 06/M05 A3029 RMK A01 T00631048  RH  045%=      5-min Rain = 0
KHA3 191928Z 32016G21KT 07/M04 A3029 RMK A01 T00671042  RH  045%=      5-min Rain = 0
KHA3 191929Z 34019KT 07/M04 A3029 RMK A01 T00691044  RH  044%=      5-min Rain = 0
KHA3 191930Z 33021KT 07/M05 A3029 RMK A01 T00671048  RH  044%=      5-min Rain = 0
KHA3 191931Z 34020G25KT 06/M05 A3029 RMK A01 T00641051  RH  044%=      5-min Rain = 0
KHA3 191932Z 34020KT 06/M05 A3028 RMK A01 T00641049  RH  044%=      5-min Rain = 0
KHA3 191933Z 34018KT 07/M05 A3028 RMK A01 T00661046  RH  045%=      5-min Rain = 0
KHA3 191934Z 33020G25KT 07/M04 A3028 RMK A01 T00701043  RH  045%=      5-min Rain = 0
KHA3 191935Z 34021G28KT 07/M05 A3028 RMK A01 T00691048  RH  043%=      5-min Rain = 0
KHA3 191936Z 34022KT 07/M05 A3028 RMK A01 T00671050  RH  043%=      5-min Rain = 0
KHA3 191937Z 35021KT 07/M05 A3028 RMK A01 T00661048  RH  044%=      5-min Rain = 0
KHA3 191938Z 34022KT 07/M05 A3028 RMK A01 T00651050  RH  044%=      5-min Rain = 0
KHA3 191939Z 34021KT 07/M05 A3028 RMK A01 T00651048  RH  044%=      5-min Rain = 0
KHA3 191940Z 33022KT 07/M05 A3028 RMK A01 T00651048  RH  044%=      5-min Rain = 0
KHA3 191941Z 33022KT 07/M05 A3028 RMK A01 T00661048  RH  044%=      5-min Rain = 0
KHA3 191942Z 32022KT 07/M05 A3028 RMK A01 T00651049  RH  044%=      5-min Rain = 0
KHA3 191943Z 33020KT 07/M05 A3028 RMK A01 T00651048  RH  044%=      5-min Rain = 0
KHA3 191944Z 33017KT 07/M05 A3028 RMK A01 T00661047  RH  044%=      5-min Rain = 0
KHA3 191945Z 33019G25KT 07/M05 A3028 RMK A01 T00681045  RH  044%=      5-min Rain = 0
KHA3 191946Z 34023G28KT 07/M05 A3028 RMK A01 T00691047  RH  043%=      5-min Rain = 0
KHA3 191947Z 34023KT 07/M05 A3028 RMK A01 T00681048  RH  043%=      5-min Rain = 0
KHA3 191948Z 33018KT 07/M05 A3028 RMK A01 T00671048  RH  044%=      5-min Rain = 0
KHA3 191949Z 33020KT 07/M05 A3028 RMK A01 T00681046  RH  044%=      5-min Rain = 0
KHA3 191950Z 33020KT 07/M05 A3028 RMK A01 T00681048  RH  044%=      5-min Rain = 0
KHA3 191951Z 34018G24KT 07/M05 A3027 RMK A01 T00681045  RH  044%=      5-min Rain = 0
KHA3 191952Z 34024KT 07/M05 A3027 RMK A01 T00711046  RH  043%=      5-min Rain = 0
KHA3 191953Z 34023KT 07/M05 A3027 RMK A01 T00691049  RH  043%=      5-min Rain = 0
KHA3 191954Z 34023KT 07/M05 A3027 RMK A01 T00681048  RH  043%=      5-min Rain = 0
KHA3 191955Z 34019KT 07/M05 A3027 RMK A01 T00701045  RH  044%=      5-min Rain = 0
KHA3 191956Z 34021KT 07/M05 A3027 RMK A01 T00721046  RH  043%=      5-min Rain = 0
KHA3 191957Z 33019KT 07/M05 A3027 RMK A01 T00711048  RH  043%=      5-min Rain = 0
KHA3 191958Z 33021G27KT 07/M05 A3027 RMK A01 T00691049  RH  043%=      5-min Rain = 0
KHA3 191959Z 34023KT 07/M05 A3027 RMK A01 T00681048  RH  043%=      5-min Rain = 0
KHA3 192000Z 34021KT 07/M05 A3027 RMK A01 T00691047  RH  043%=      5-min Rain = 0
KHA3 192001Z 33019KT 07/M05 A3027 RMK A01 T00701047  RH  043%=      5-min Rain = 0
KHA3 192002Z 34018KT 07/M04 A3027 RMK A01 T00731042  RH  044%=      5-min Rain = 0
KHA3 192003Z 33018KT 07/M05 A3027 RMK A01 T00741046  RH  042%=      5-min Rain = 0
KHA3 192004Z 33020KT 07/M05 A3027 RMK A01 T00711047  RH  043%=      5-min Rain = 0
KHA3 192005Z 32021KT 07/M05 A3027 RMK A01 T00721047  RH  043%=      5-min Rain = 0
KHA3 192006Z 33019KT 07/M05 A3027 RMK A01 T00701049  RH  043%=      5-min Rain = 0
KHA3 192007Z 33022KT 07/M05 A3027 RMK A01 T00701047  RH  043%=      5-min Rain = 0
KHA3 192008Z 33020KT 07/M05 A3027 RMK A01 T00701049  RH  042%=      5-min Rain = 0
KHA3 192009Z 33020KT 07/M05 A3027 RMK A01 T00701049  RH  042%=      5-min Rain = 0
KHA3 192010Z 32020KT 07/M05 A3026 RMK A01 T00701049  RH  043%=      5-min Rain = 0
KHA3 192011Z 32019KT 07/M05 A3026 RMK A01 T00701049  RH  042%=      5-min Rain = 0
KHA3 192012Z 32018KT 07/M05 A3026 RMK A01 T00691050  RH  043%=      5-min Rain = 0
KHA3 192013Z 32021KT 07/M05 A3026 RMK A01 T00701048  RH  043%=      5-min Rain = 0
KHA3 192014Z 33020KT 07/M05 A3026 RMK A01 T00711047  RH  043%=      5-min Rain = 0
KHA3 192015Z 34021KT 07/M05 A3026 RMK A01 T00731047  RH  042%=      5-min Rain = 0
KHA3 192016Z 34017KT 07/M05 A3026 RMK A01 T00721048  RH  042%=      5-min Rain = 0
KHA3 192017Z 34017KT 07/M05 A3026 RMK A01 T00721047  RH  043%=      5-min Rain = 0
KHA3 192018Z 33016KT 07/M05 A3026 RMK A01 T00711048  RH  042%=      5-min Rain = 0
KHA3 192019Z 34020KT 07/M05 A3026 RMK A01 T00711048  RH  043%=      5-min Rain = 0
KHA3 192020Z 33022KT 07/M05 A3026 RMK A01 T00711048  RH  042%=      5-min Rain = 0
KHA3 192021Z 33018KT 07/M05 A3026 RMK A01 T00711047  RH  043%=      5-min Rain = 0
KHA3 192022Z 32020G25KT 07/M05 A3026 RMK A01 T00721047  RH  042%=      5-min Rain = 0
KHA3 192023Z 33020KT 07/M05 A3026 RMK A01 T00711048  RH  042%=      5-min Rain = 0
KHA3 192024Z 32018G23KT 07/M05 A3026 RMK A01 T00701048  RH  043%=      5-min Rain = 0
KHA3 192025Z 32020KT 07/M05 A3026 RMK A01 T00711049  RH  042%=      5-min Rain = 0
KHA3 192026Z 33020KT 07/M05 A3026 RMK A01 T00701049  RH  042%=      5-min Rain = 0
KHA3 192027Z 33018KT 07/M05 A3026 RMK A01 T00701048  RH  043%=      5-min Rain = 0
KHA3 192028Z 33015G20KT 07/M05 A3026 RMK A01 T00701047  RH  043%=      5-min Rain = 0
KHA3 192029Z 35014KT 07/M04 A3026 RMK A01 T00731043  RH  043%=      5-min Rain = 0
KHA3 192030Z 35014KT 07/M05 A3026 RMK A01 T00741045  RH  043%=      5-min Rain = 0
KHA3 192031Z 34015KT 08/M04 A3026 RMK A01 T00761043  RH  043%=      5-min Rain = 0
KHA3 192032Z 33019KT 08/M04 A3026 RMK A01 T00781043  RH  042%=      5-min Rain = 0
KHA3 192033Z 33014KT 08/M05 A3026 RMK A01 T00771045  RH  041%=      5-min Rain = 0
KHA3 192034Z 33019KT 08/M05 A3026 RMK A01 T00751046  RH  042%=      5-min Rain = 0
KHA3 192035Z 34017KT 08/M05 A3026 RMK A01 T00751047  RH  042%=      5-min Rain = 0
KHA3 192036Z 34016KT 07/M05 A3026 RMK A01 T00741047  RH  042%=      5-min Rain = 0
KHA3 192037Z 35019KT 07/M05 A3026 RMK A01 T00741046  RH  042%=      5-min Rain = 0
KHA3 192038Z 35019KT 08/M05 A3026 RMK A01 T00751046  RH  042%=      5-min Rain = 0
KHA3 192039Z 35017KT 07/M05 A3026 RMK A01 T00741047  RH  042%=      5-min Rain = 0
KHA3 192040Z 34016KT 07/M05 A3026 RMK A01 T00721048  RH  042%=      5-min Rain = 0
KHA3 192041Z 35018KT 07/M05 A3026 RMK A01 T00731046  RH  043%=      5-min Rain = 0
KHA3 192042Z 35018KT 08/M05 A3026 RMK A01 T00751045  RH  042%=      5-min Rain = 0
KHA3 192043Z 35017KT 08/M05 A3026 RMK A01 T00751048  RH  041%=      5-min Rain = 0
KHA3 192044Z 35017KT 07/M05 A3026 RMK A01 T00741046  RH  042%=      5-min Rain = 0
KHA3 192045Z 35018KT 08/M05 A3026 RMK A01 T00751046  RH  042%=      5-min Rain = 0
KHA3 192046Z 34015KT 07/M05 A3026 RMK A01 T00741047  RH  042%=      5-min Rain = 0
KHA3 192047Z 34015KT 07/M05 A3026 RMK A01 T00731048  RH  042%=      5-min Rain = 0
KHA3 192048Z 35017KT 07/M05 A3026 RMK A01 T00731046  RH  042%=      5-min Rain = 0
KHA3 192049Z 35020KT 08/M05 A3026 RMK A01 T00761045  RH  042%=      5-min Rain = 0
KHA3 192050Z 36018KT 08/M05 A3026 RMK A01 T00761047  RH  041%=      5-min Rain = 0
KHA3 192051Z 35020KT 08/M05 A3026 RMK A01 T00761046  RH  042%=      5-min Rain = 0
KHA3 192052Z 35019KT 08/M05 A3026 RMK A01 T00761047  RH  041%=      5-min Rain = 0
KHA3 192053Z 35017KT 08/M05 A3026 RMK A01 T00751047  RH  041%=      5-min Rain = 0
KHA3 192054Z 35016KT 08/M05 A3026 RMK A01 T00751048  RH  042%=      5-min Rain = 0
KHA3 192055Z 35015KT 08/M05 A3026 RMK A01 T00751048  RH  041%=      5-min Rain = 0
KHA3 192056Z 34016G22KT 07/M05 A3026 RMK A01 T00741047  RH  042%=      5-min Rain = 0
KHA3 192057Z 33017KT 08/M05 A3026 RMK A01 T00761047  RH  042%=      5-min Rain = 0
KHA3 192058Z 35019KT 08/M05 A3026 RMK A01 T00781046  RH  041%=      5-min Rain = 0
KHA3 192059Z 35020KT 08/M05 A3026 RMK A01 T00781049  RH  040%=      5-min Rain = 0
KHA3 192100Z 34018KT 08/M05 A3026 RMK A01 T00761049  RH  041%=      5-min Rain = 0
KHA3 192101Z 34016KT 08/M05 A3026 RMK A01 T00761049  RH  041%=      5-min Rain = 0
KHA3 192102Z 34016KT 08/M05 A3026 RMK A01 T00751049  RH  041%=      5-min Rain = 0
KHA3 192103Z 34014KT 08/M05 A3026 RMK A01 T00751048  RH  041%=      5-min Rain = 0
KHA3 192104Z 34016KT 08/M05 A3026 RMK A01 T00771045  RH  042%=      5-min Rain = 0
KHA3 192105Z 34018KT 08/M05 A3026 RMK A01 T00771047  RH  041%=      5-min Rain = 0
KHA3 192106Z 35015KT 08/M05 A3026 RMK A01 T00761049  RH  041%=      5-min Rain = 0
KHA3 192107Z 34014KT 08/M05 A3026 RMK A01 T00751047  RH  042%=      5-min Rain = 0
KHA3 192108Z 34015KT 08/M04 A3026 RMK A01 T00781044  RH  042%=      5-min Rain = 0
KHA3 192109Z 32020KT 08/M05 A3026 RMK A01 T00801046  RH  041%=      5-min Rain = 0
KHA3 192110Z 33019KT 08/M05 A3026 RMK A01 T00801048  RH  040%=      5-min Rain = 0
KHA3 192111Z 33015G20KT 08/M05 A3027 RMK A01 T00791047  RH  040%=      5-min Rain = 0
KHA3 192112Z 32020KT 08/M05 A3027 RMK A01 T00791048  RH  040%=      5-min Rain = 0
KHA3 192113Z 33018KT 08/M05 A3027 RMK A01 T00781050  RH  040%=      5-min Rain = 0
KHA3 192114Z 34018KT 08/M05 A3027 RMK A01 T00771049  RH  040%=      5-min Rain = 0
KHA3 192115Z 34017KT 08/M05 A3027 RMK A01 T00781049  RH  040%=      5-min Rain = 0
KHA3 192116Z 34016G22KT 08/M05 A3027 RMK A01 T00781048  RH  040%=      5-min Rain = 0
KHA3 192117Z 33017G23KT 08/M05 A3027 RMK A01 T00781049  RH  040%=      5-min Rain = 0
KHA3 192118Z 33017KT 08/M05 A3027 RMK A01 T00791048  RH  040%=      5-min Rain = 0
KHA3 192119Z 34018KT 08/M05 A3027 RMK A01 T00811047  RH  040%=      5-min Rain = 0
KHA3 192120Z 34017G22KT 08/M05 A3027 RMK A01 T00811048  RH  040%=      5-min Rain = 0
KHA3 192121Z 34020KT 08/M05 A3027 RMK A01 T00821048  RH  039%=      5-min Rain = 0
KHA3 192122Z 33017KT 08/M05 A3027 RMK A01 T00811048  RH  040%=      5-min Rain = 0
KHA3 192123Z 33014KT 08/M05 A3027 RMK A01 T00811048  RH  040%=      5-min Rain = 0
KHA3 192124Z 32017KT 08/M05 A3027 RMK A01 T00811049  RH  039%=      5-min Rain = 0
KHA3 192125Z 34013KT 08/M05 A3027 RMK A01 T00791049  RH  040%=      5-min Rain = 0
KHA3 192126Z 34014KT 08/M04 A3027 RMK A01 T00821043  RH  041%=      5-min Rain = 0
KHA3 192127Z 34018KT 08/M05 A3027 RMK A01 T00841046  RH  039%=      5-min Rain = 0
KHA3 192128Z 34016KT 08/M05 A3027 RMK A01 T00821049  RH  039%=      5-min Rain = 0
KHA3 192129Z 33019KT 08/M05 A3027 RMK A01 T00811049  RH  039%=      5-min Rain = 0
KHA3 192130Z 34013KT 08/M05 A3027 RMK A01 T00791050  RH  040%=      5-min Rain = 0
KHA3 192131Z 32018KT 08/M05 A3027 RMK A01 T00811046  RH  040%=      5-min Rain = 0
KHA3 192132Z 33018KT 08/M05 A3027 RMK A01 T00811050  RH  039%=      5-min Rain = 0
KHA3 192133Z 34015KT 08/M05 A3027 RMK A01 T00801050  RH  039%=      5-min Rain = 0
KHA3 192134Z 33014KT 08/M05 A3027 RMK A01 T00801048  RH  040%=      5-min Rain = 0
KHA3 192135Z 34016KT 08/M05 A3027 RMK A01 T00841046  RH  040%=      5-min Rain = 0
KHA3 192136Z 34013KT 08/M05 A3027 RMK A01 T00831050  RH  039%=      5-min Rain = 0
KHA3 192137Z 33015G21KT 08/M05 A3027 RMK A01 T00811049  RH  039%=      5-min Rain = 0
KHA3 192138Z 34019KT 08/M05 A3027 RMK A01 T00821050  RH  039%=      5-min Rain = 0
KHA3 192139Z 34016KT 08/M05 A3027 RMK A01 T00821050  RH  039%=      5-min Rain = 0
KHA3 192140Z 34017KT 08/M05 A3027 RMK A01 T00821049  RH  039%=      5-min Rain = 0
KHA3 192141Z 34018KT 08/M05 A3027 RMK A01 T00821050  RH  039%=      5-min Rain = 0
KHA3 192142Z 34018KT 08/M05 A3027 RMK A01 T00811051  RH  039%=      5-min Rain = 0
KHA3 192143Z 34015KT 08/M05 A3027 RMK A01 T00801051  RH  039%=      5-min Rain = 0
KHA3 192144Z 35017KT 08/M05 A3027 RMK A01 T00801051  RH  039%=      5-min Rain = 0
KHA3 192145Z 35015G20KT 08/M05 A3027 RMK A01 T00791052  RH  039%=      5-min Rain = 0
KHA3 192146Z 35014KT 08/M05 A3027 RMK A01 T00811049  RH  040%=      5-min Rain = 0
KHA3 192147Z 35018KT 08/M05 A3027 RMK A01 T00811050  RH  039%=      5-min Rain = 0
KHA3 192148Z 35014KT 08/M05 A3027 RMK A01 T00801051  RH  039%=      5-min Rain = 0
KHA3 192149Z 35015KT 08/M05 A3027 RMK A01 T00801050  RH  039%=      5-min Rain = 0
KHA3 192150Z 34015KT 08/M05 A3027 RMK A01 T00801051  RH  039%=      5-min Rain = 0
KHA3 192151Z 34013KT 08/M05 A3027 RMK A01 T00811049  RH  039%=      5-min Rain = 0
KHA3 192152Z 33011KT 08/M05 A3027 RMK A01 T00821048  RH  039%=      5-min Rain = 0
KHA3 192153Z 32011KT 08/M05 A3027 RMK A01 T00831047  RH  039%=      5-min Rain = 0
KHA3 192154Z 34015G22KT 09/M05 A3028 RMK A01 T00861045  RH  039%=      5-min Rain = 0
KHA3 192155Z 34017KT 09/M05 A3028 RMK A01 T00861048  RH  038%=      5-min Rain = 0
KHA3 192156Z 34016KT 08/M05 A3028 RMK A01 T00841053  RH  037%=      5-min Rain = 0
KHA3 192157Z 33016KT 08/M05 A3028 RMK A01 T00831052  RH  038%=      5-min Rain = 0
KHA3 192158Z 33018KT 08/M05 A3028 RMK A01 T00831051  RH  038%=      5-min Rain = 0
KHA3 192159Z 33016KT 08/M05 A3028 RMK A01 T00831052  RH  038%=      5-min Rain = 0
KHA3 192200Z 32015KT 08/M05 A3028 RMK A01 T00821052  RH  038%=      5-min Rain = 0
KHA3 192201Z 33014KT 08/M05 A3028 RMK A01 T00811052  RH  038%=      5-min Rain = 0
KHA3 192202Z 32013KT 08/M05 A3028 RMK A01 T00811052  RH  039%=      5-min Rain = 0
KHA3 192203Z 33016KT 08/M05 A3028 RMK A01 T00821050  RH  039%=      5-min Rain = 0
KHA3 192204Z 35016G21KT 08/M05 A3028 RMK A01 T00821050  RH  039%=      5-min Rain = 0
KHA3 192205Z 35017KT 08/M05 A3028 RMK A01 T00831051  RH  038%=      5-min Rain = 0
KHA3 192206Z 34017KT 08/M05 A3028 RMK A01 T00821051  RH  039%=      5-min Rain = 0
KHA3 192207Z 34015KT 08/M05 A3028 RMK A01 T00821050  RH  039%=      5-min Rain = 0
KHA3 192208Z 34013KT 08/M05 A3028 RMK A01 T00821051  RH  039%=      5-min Rain = 0
KHA3 192209Z 33013G18KT 08/M05 A3028 RMK A01 T00821050  RH  039%=      5-min Rain = 0
KHA3 192210Z 34013KT 08/M05 A3028 RMK A01 T00821049  RH  039%=      5-min Rain = 0
KHA3 192211Z 34014KT 08/M05 A3028 RMK A01 T00831048  RH  039%=      5-min Rain = 0
KHA3 192212Z 34018KT 08/M05 A3028 RMK A01 T00841049  RH  039%=      5-min Rain = 0
KHA3 192213Z 34017KT 08/M05 A3028 RMK A01 T00831050  RH  038%=      5-min Rain = 0
KHA3 192214Z 34017KT 08/M05 A3028 RMK A01 T00831050  RH  039%=      5-min Rain = 0
KHA3 192215Z 34017KT 08/M05 A3028 RMK A01 T00831050  RH  039%=      5-min Rain = 0
KHA3 192216Z 34015KT 08/M05 A3028 RMK A01 T00821051  RH  039%=      5-min Rain = 0
KHA3 192217Z 34015KT 08/M05 A3028 RMK A01 T00821049  RH  039%=      5-min Rain = 0
KHA3 192218Z 34014KT 08/M05 A3028 RMK A01 T00821050  RH  039%=      5-min Rain = 0
KHA3 192219Z 34015KT 08/M05 A3028 RMK A01 T00821049  RH  039%=      5-min Rain = 0
KHA3 192220Z 35014KT 08/M05 A3028 RMK A01 T00821050  RH  039%=      5-min Rain = 0
KHA3 192221Z 33014KT 08/M05 A3028 RMK A01 T00821049  RH  039%=      5-min Rain = 0
KHA3 192222Z 33017KT 08/M05 A3028 RMK A01 T00831048  RH  039%=      5-min Rain = 0
KHA3 192223Z 33014KT 08/M05 A3028 RMK A01 T00831048  RH  039%=      5-min Rain = 0
KHA3 192224Z 33015KT 08/M05 A3028 RMK A01 T00841048  RH  039%=      5-min Rain = 0
KHA3 192225Z 33017KT 08/M05 A3028 RMK A01 T00841049  RH  039%=      5-min Rain = 0
KHA3 192226Z 34016KT 08/M05 A3028 RMK A01 T00831050  RH  038%=      5-min Rain = 0
KHA3 192227Z 34016KT 08/M05 A3028 RMK A01 T00831050  RH  039%=      5-min Rain = 0
KHA3 192228Z 33016KT 08/M05 A3028 RMK A01 T00831050  RH  039%=      5-min Rain = 0
KHA3 192229Z 34016KT 08/M05 A3028 RMK A01 T00831049  RH  039%=      5-min Rain = 0
KHA3 192230Z 33016KT 08/M05 A3028 RMK A01 T00831049  RH  039%=      5-min Rain = 0
KHA3 192231Z 32018KT 08/M05 A3028 RMK A01 T00821050  RH  039%=      5-min Rain = 0
KHA3 192232Z 33017KT 08/M05 A3028 RMK A01 T00811050  RH  039%=      5-min Rain = 0
KHA3 192233Z 33016KT 08/M05 A3028 RMK A01 T00811049  RH  039%=      5-min Rain = 0
KHA3 192234Z 33014KT 08/M05 A3028 RMK A01 T00811049  RH  039%=      5-min Rain = 0
KHA3 192235Z 33013KT 08/M05 A3028 RMK A01 T00811049  RH  039%=      5-min Rain = 0
KHA3 192236Z 33014KT 08/M05 A3028 RMK A01 T00811048  RH  040%=      5-min Rain = 0
KHA3 192237Z 33014KT 08/M05 A3028 RMK A01 T00811049  RH  039%=      5-min Rain = 0
KHA3 192238Z 33010KT 08/M05 A3028 RMK A01 T00811048  RH  040%=      5-min Rain = 0
KHA3 192239Z 32015KT 08/M05 A3028 RMK A01 T00821047  RH  040%=      5-min Rain = 0
KHA3 192240Z 33016KT 08/M05 A3028 RMK A01 T00821050  RH  039%=      5-min Rain = 0
KHA3 192241Z 33016KT 08/M05 A3028 RMK A01 T00811050  RH  039%=      5-min Rain = 0
KHA3 192242Z 33015G20KT 08/M05 A3028 RMK A01 T00811049  RH  039%=      5-min Rain = 0
KHA3 192243Z 33015KT 08/M05 A3028 RMK A01 T00811049  RH  039%=      5-min Rain = 0
KHA3 192244Z 33014KT 08/M05 A3028 RMK A01 T00811047  RH  040%=      5-min Rain = 0
KHA3 192245Z 33014KT 08/M05 A3028 RMK A01 T00811049  RH  039%=      5-min Rain = 0
KHA3 192246Z 32016KT 08/M05 A3028 RMK A01 T00811050  RH  039%=      5-min Rain = 0
KHA3 192247Z 33014KT 08/M05 A3028 RMK A01 T00811049  RH  040%=      5-min Rain = 0
KHA3 192248Z 32014KT 08/M05 A3028 RMK A01 T00801049  RH  040%=      5-min Rain = 0
KHA3 192249Z 32013KT 08/M05 A3028 RMK A01 T00801049  RH  040%=      5-min Rain = 0
KHA3 192250Z 33013KT 08/M05 A3028 RMK A01 T00811047  RH  040%=      5-min Rain = 0
KHA3 192251Z 33015KT 08/M05 A3028 RMK A01 T00811048  RH  040%=      5-min Rain = 0
KHA3 192252Z 34014KT 08/M05 A3028 RMK A01 T00811049  RH  039%=      5-min Rain = 0
KHA3 192253Z 34012KT 08/M05 A3028 RMK A01 T00811048  RH  040%=      5-min Rain = 0
KHA3 192254Z 35011G16KT 08/M05 A3028 RMK A01 T00811047  RH  040%=      5-min Rain = 0
KHA3 192255Z 34014KT 08/M05 A3028 RMK A01 T00811048  RH  040%=      5-min Rain = 0
KHA3 192256Z 34014KT 08/M05 A3028 RMK A01 T00811050  RH  039%=      5-min Rain = 0
KHA3 192257Z 34011KT 08/M05 A3028 RMK A01 T00811050  RH  039%=      5-min Rain = 0
KHA3 192258Z 35013KT 08/M05 A3028 RMK A01 T00801049  RH  040%=      5-min Rain = 0
KHA3 192259Z 35013KT 08/M05 A3028 RMK A01 T00801049  RH  040%=      5-min Rain = 0
KHA3 192300Z 35014KT 08/M05 A3028 RMK A01 T00811049  RH  040%=      5-min Rain = 0
KHA3 192301Z 34016KT 08/M05 A3028 RMK A01 T00801050  RH  039%=      5-min Rain = 0
KHA3 192302Z 34017KT 08/M05 A3028 RMK A01 T00791052  RH  039%=      5-min Rain = 0
KHA3 192303Z 34015KT 08/M05 A3028 RMK A01 T00791051  RH  039%=      5-min Rain = 0
KHA3 192304Z 33014KT 08/M05 A3028 RMK A01 T00791051  RH  040%=      5-min Rain = 0
KHA3 192305Z 34015KT 08/M05 A3028 RMK A01 T00791051  RH  039%=      5-min Rain = 0
KHA3 192306Z 34013KT 08/M05 A3028 RMK A01 T00781052  RH  039%=      5-min Rain = 0
KHA3 192307Z 33011KT 08/M05 A3028 RMK A01 T00781050  RH  040%=      5-min Rain = 0
KHA3 192308Z 34013KT 08/M05 A3028 RMK A01 T00781049  RH  040%=      5-min Rain = 0
KHA3 192309Z 34015KT 08/M05 A3028 RMK A01 T00781051  RH  040%=      5-min Rain = 0
KHA3 192310Z 35012KT 08/M05 A3028 RMK A01 T00781052  RH  039%=      5-min Rain = 0
KHA3 192311Z 34013KT 08/M05 A3028 RMK A01 T00771051  RH  040%=      5-min Rain = 0
KHA3 192312Z 34011KT 08/M05 A3028 RMK A01 T00771051  RH  040%=      5-min Rain = 0
KHA3 192313Z 35013KT 08/M05 A3028 RMK A01 T00771051  RH  040%=      5-min Rain = 0
KHA3 192314Z 35013KT 08/M05 A3028 RMK A01 T00771051  RH  040%=      5-min Rain = 0
KHA3 192315Z 35010KT 08/M05 A3028 RMK A01 T00771051  RH  040%=      5-min Rain = 0
KHA3 192316Z 35014KT 08/M05 A3028 RMK A01 T00761050  RH  040%=      5-min Rain = 0
KHA3 192317Z 35013KT 08/M05 A3028 RMK A01 T00761051  RH  040%=      5-min Rain = 0
KHA3 192318Z 34013KT 08/M05 A3028 RMK A01 T00761051  RH  040%=      5-min Rain = 0
KHA3 192319Z 34015KT 08/M05 A3028 RMK A01 T00761051  RH  040%=      5-min Rain = 0
KHA3 192320Z 34013KT 08/M05 A3028 RMK A01 T00761050  RH  040%=      5-min Rain = 0
KHA3 192321Z 34011KT 08/M05 A3028 RMK A01 T00751050  RH  041%=      5-min Rain = 0
KHA3 192322Z 35011KT 08/M05 A3028 RMK A01 T00751050  RH  041%=      5-min Rain = 0
KHA3 192323Z 36012KT 08/M05 A3028 RMK A01 T00751051  RH  041%=      5-min Rain = 0
KHA3 192324Z 35010KT 07/M05 A3028 RMK A01 T00741051  RH  041%=      5-min Rain = 0
KHA3 192325Z 34010KT 07/M05 A3028 RMK A01 T00741050  RH  041%=      5-min Rain = 0
KHA3 192326Z 34010KT 07/M05 A3028 RMK A01 T00741050  RH  041%=      5-min Rain = 0
KHA3 192327Z 35008KT 07/M05 A3028 RMK A01 T00731050  RH  041%=      5-min Rain = 0
KHA3 192328Z 35007KT 07/M05 A3028 RMK A01 T00731049  RH  042%=      5-min Rain = 0
KHA3 192329Z 35009KT 07/M05 A3028 RMK A01 T00711049  RH  042%=      5-min Rain = 0
KHA3 192330Z 35012KT 07/M05 A3028 RMK A01 T00711051  RH  042%=      5-min Rain = 0
KHA3 192331Z 35010KT 07/M05 A3028 RMK A01 T00711053  RH  041%=      5-min Rain = 0
KHA3 192332Z 35009KT 07/M05 A3028 RMK A01 T00721053  RH  041%=      5-min Rain = 0
KHA3 192333Z 36009KT 07/M05 A3028 RMK A01 T00711052  RH  041%=      5-min Rain = 0
KHA3 192334Z 35008KT 07/M05 A3028 RMK A01 T00701052  RH  042%=      5-min Rain = 0
KHA3 192335Z 36008KT 07/M05 A3028 RMK A01 T00681051  RH  042%=      5-min Rain = 0
KHA3 192336Z 00009KT 07/M05 A3028 RMK A01 T00671052  RH  042%=      5-min Rain = 0
KHA3 192337Z 00008KT 07/M05 A3028 RMK A01 T00671053  RH  042%=      5-min Rain = 0
KHA3 192338Z 36008KT 07/M05 A3028 RMK A01 T00661053  RH  043%=      5-min Rain = 0
KHA3 192339Z 36008KT 06/M05 A3028 RMK A01 T00641053  RH  043%=      5-min Rain = 0
KHA3 192340Z 00007KT 06/M05 A3028 RMK A01 T00641053  RH  043%=      5-min Rain = 0
KHA3 192341Z 00007KT 06/M05 A3028 RMK A01 T00631052  RH  043%=      5-min Rain = 0
KHA3 192342Z 00007KT 06/M05 A3028 RMK A01 T00621052  RH  044%=      5-min Rain = 0
KHA3 192343Z 00008KT 06/M05 A3028 RMK A01 T00601052  RH  044%=      5-min Rain = 0
KHA3 192344Z 00007KT 06/M05 A3028 RMK A01 T00601053  RH  044%=      5-min Rain = 0
KHA3 192345Z 01008KT 06/M05 A3028 RMK A01 T00601052  RH  044%=      5-min Rain = 0
KHA3 192346Z 01008KT 06/M05 A3028 RMK A01 T00601053  RH  044%=      5-min Rain = 0
KHA3 192347Z 02006KT 06/M05 A3028 RMK A01 T00591052  RH  045%=      5-min Rain = 0
KHA3 192348Z 02006KT 06/M05 A3029 RMK A01 T00581052  RH  045%=      5-min Rain = 0
KHA3 192349Z 02007KT 06/M05 A3029 RMK A01 T00561052  RH  045%=      5-min Rain = 0
KHA3 192350Z 03007KT 06/M05 A3029 RMK A01 T00561053  RH  045%=      5-min Rain = 0
KHA3 192351Z 03006KT 06/M05 A3029 RMK A01 T00551054  RH  045%=      5-min Rain = 0
KHA3 192352Z 03007KT 05/M05 A3029 RMK A01 T00541054  RH  045%=      5-min Rain = 0
KHA3 192353Z 03006KT 05/M06 A3029 RMK A01 T00531055  RH  045%=      5-min Rain = 0
KHA3 192354Z 03007KT 05/M06 A3029 RMK A01 T00521056  RH  046%=      5-min Rain = 0
KHA3 192355Z 03008KT 05/M06 A3029 RMK A01 T00501056  RH  046%=      5-min Rain = 0
KHA3 192356Z 04007KT 05/M06 A3029 RMK A01 T00491057  RH  046%=      5-min Rain = 0
KHA3 192357Z 03007KT 05/M06 A3029 RMK A01 T00481058  RH  046%=      5-min Rain = 0
KHA3 192358Z 04007KT 05/M06 A3029 RMK A01 T00471057  RH  047%=      5-min Rain = 0
KHA3 192359Z 04007KT 05/M06 A3029 RMK A01 T00461058  RH  047%=      5-min Rain = 0
KHA3 200000Z 04007KT 04/M06 A3029 RMK A01 T00441058  RH  047%=      5-min Rain = 0
KHA3 200001Z 04007KT 04/M06 A3029 RMK A01 T00431059  RH  048%=      5-min Rain = 0
KHA3 200002Z 04007KT 04/M06 A3029 RMK A01 T00421058  RH  048%=      5-min Rain = 0
KHA3 200003Z 04007KT 04/M06 A3029 RMK A01 T00411059  RH  048%=      5-min Rain = 0
KHA3 200004Z 04007KT 04/M06 A3029 RMK A01 T00411059  RH  048%=      5-min Rain = 0
KHA3 200005Z 04007KT 04/M06 A3029 RMK A01 T00401059  RH  048%=      5-min Rain = 0
KHA3 200006Z 04007KT 04/M06 A3029 RMK A01 T00391060  RH  048%=      5-min Rain = 0
KHA3 200007Z 04007KT 04/M06 A3029 RMK A01 T00391060  RH  049%=      5-min Rain = 0
KHA3 200008Z 04007KT 04/M06 A3029 RMK A01 T00381060  RH  049%=      5-min Rain = 0
KHA3 200009Z 04007KT 04/M06 A3029 RMK A01 T00371060  RH  049%=      5-min Rain = 0
KHA3 200010Z 05006KT 04/M06 A3029 RMK A01 T00361060  RH  049%=      5-min Rain = 0
KHA3 200011Z 05006KT 04/M06 A3029 RMK A01 T00351060  RH  050%=      5-min Rain = 0
KHA3 200012Z 05006KT 03/M06 A3029 RMK A01 T00341060  RH  050%=      5-min Rain = 0
KHA3 200013Z 05006KT 03/M06 A3029 RMK A01 T00331060  RH  051%=      5-min Rain = 0
KHA3 200014Z 05006KT 03/M06 A3029 RMK A01 T00331060  RH  051%=      5-min Rain = 0
KHA3 200015Z 05007KT 03/M06 A3029 RMK A01 T00331060  RH  051%=      5-min Rain = 0
KHA3 200016Z 05006KT 03/M06 A3029 RMK A01 T00331060  RH  051%=      5-min Rain = 0
KHA3 200017Z 05006KT 03/M06 A3029 RMK A01 T00321060  RH  051%=      5-min Rain = 0
KHA3 200018Z 04006KT 03/M06 A3029 RMK A01 T00331060  RH  051%=      5-min Rain = 0
KHA3 200019Z 05005KT 03/M06 A3029 RMK A01 T00331060  RH  051%=      5-min Rain = 0
KHA3 200020Z 03005KT 03/M06 A3029 RMK A01 T00331060  RH  051%=      5-min Rain = 0
KHA3 200021Z 03005KT 03/M06 A3029 RMK A01 T00331061  RH  050%=      5-min Rain = 0
KHA3 200022Z 02005KT 03/M06 A3029 RMK A01 T00331061  RH  050%=      5-min Rain = 0
KHA3 200023Z 02005KT 03/M06 A3029 RMK A01 T00331061  RH  050%=      5-min Rain = 0
KHA3 200024Z 02005KT 03/M06 A3029 RMK A01 T00321062  RH  050%=      5-min Rain = 0
KHA3 200025Z 02005KT 03/M06 A3029 RMK A01 T00311062  RH  050%=      5-min Rain = 0
KHA3 200026Z 02006KT 03/M06 A3029 RMK A01 T00311062  RH  050%=      5-min Rain = 0
KHA3 200027Z 01006KT 03/M06 A3029 RMK A01 T00301062  RH  051%=      5-min Rain = 0
KHA3 200028Z 02006KT 03/M06 A3029 RMK A01 T00301062  RH  051%=      5-min Rain = 0
KHA3 200029Z 02006KT 03/M06 A3029 RMK A01 T00301061  RH  051%=      5-min Rain = 0
KHA3 200030Z 03007KT 03/M06 A3029 RMK A01 T00301061  RH  051%=      5-min Rain = 0
KHA3 200031Z 03008KT 03/M06 A3029 RMK A01 T00301062  RH  051%=      5-min Rain = 0
KHA3 200032Z 03008KT 03/M06 A3029 RMK A01 T00291062  RH  051%=      5-min Rain = 0
KHA3 200033Z 03008KT 03/M06 A3029 RMK A01 T00291062  RH  051%=      5-min Rain = 0
KHA3 200034Z 03008KT 03/M06 A3029 RMK A01 T00281062  RH  052%=      5-min Rain = 0
KHA3 200035Z 03008KT 03/M06 A3029 RMK A01 T00281062  RH  052%=      5-min Rain = 0
KHA3 200036Z 03007KT 03/M06 A3029 RMK A01 T00281062  RH  052%=      5-min Rain = 0
KHA3 200037Z 03008KT 03/M06 A3029 RMK A01 T00281062  RH  052%=      5-min Rain = 0
KHA3 200038Z 03008KT 03/M06 A3029 RMK A01 T00271062  RH  052%=      5-min Rain = 0
KHA3 200039Z 04008KT 03/M06 A3029 RMK A01 T00271062  RH  052%=      5-min Rain = 0
KHA3 200040Z 04008KT 03/M06 A3029 RMK A01 T00261062  RH  052%=      5-min Rain = 0
KHA3 200041Z 04007KT 03/M06 A3029 RMK A01 T00251062  RH  053%=      5-min Rain = 0
KHA3 200042Z 04007KT 02/M06 A303 RMK A01 T00241062  RH  053%=      5-min Rain = 0
KHA3 200043Z 04007KT 02/M06 A303 RMK A01 T00231063  RH  053%=      5-min Rain = 0
KHA3 200044Z 04008KT 02/M06 A303 RMK A01 T00231063  RH  053%=      5-min Rain = 0
KHA3 200045Z 04007KT 02/M06 A303 RMK A01 T00231063  RH  053%=      5-min Rain = 0
KHA3 200046Z 05007KT 02/M06 A303 RMK A01 T00221063  RH  053%=      5-min Rain = 0
KHA3 200047Z 04007KT 02/M06 A303 RMK A01 T00211064  RH  053%=      5-min Rain = 0
KHA3 200048Z 04008KT 02/M06 A303 RMK A01 T00211064  RH  053%=      5-min Rain = 0
KHA3 200049Z 04008KT 02/M06 A303 RMK A01 T00211064  RH  053%=      5-min Rain = 0
KHA3 200050Z 04008KT 02/M06 A303 RMK A01 T00221064  RH  053%=      5-min Rain = 0
KHA3 200051Z 04009KT 02/M06 A303 RMK A01 T00221064  RH  053%=      5-min Rain = 0
KHA3 200052Z 04009KT 02/M06 A303 RMK A01 T00221064  RH  053%=      5-min Rain = 0
KHA3 200053Z 04008KT 02/M06 A303 RMK A01 T00221064  RH  053%=      5-min Rain = 0
KHA3 200054Z 04009KT 02/M06 A303 RMK A01 T00231064  RH  053%=      5-min Rain = 0
KHA3 200055Z 04008KT 02/M06 A303 RMK A01 T00231064  RH  053%=      5-min Rain = 0
KHA3 200056Z 04008KT 02/M06 A303 RMK A01 T00221064  RH  053%=      5-min Rain = 0
KHA3 200057Z 04008KT 02/M06 A303 RMK A01 T00221064  RH  053%=      5-min Rain = 0
KHA3 200058Z 04008KT 02/M06 A303 RMK A01 T00211064  RH  053%=      5-min Rain = 0
KHA3 200059Z 04007KT 02/M07 A303 RMK A01 T00211065  RH  053%=      5-min Rain = 0
KHA3 200100Z 04007KT 02/M07 A303 RMK A01 T00201065  RH  053%=      5-min Rain = 0
KHA3 200101Z 04007KT 02/M07 A303 RMK A01 T00191065  RH  054%=      5-min Rain = 0
KHA3 200102Z 05007KT 02/M07 A303 RMK A01 T00181065  RH  054%=      5-min Rain = 0
KHA3 200103Z 05007KT 02/M07 A303 RMK A01 T00161065  RH  055%=      5-min Rain = 0
KHA3 200104Z 05007KT 02/M07 A303 RMK A01 T00151065  RH  055%=      5-min Rain = 0
KHA3 200105Z 05007KT 01/M07 A303 RMK A01 T00141065  RH  056%=      5-min Rain = 0
KHA3 200106Z 05007KT 01/M06 A303 RMK A01 T00131064  RH  056%=      5-min Rain = 0
KHA3 200107Z 05007KT 01/M07 A303 RMK A01 T00121065  RH  057%=      5-min Rain = 0
KHA3 200108Z 05007KT 01/M06 A3031 RMK A01 T00121064  RH  057%=      5-min Rain = 0
KHA3 200109Z 05007KT 01/M06 A3031 RMK A01 T00121064  RH  057%=      5-min Rain = 0
KHA3 200110Z 05008KT 01/M06 A303 RMK A01 T00131064  RH  057%=      5-min Rain = 0
KHA3 200111Z 04007KT 01/M06 A303 RMK A01 T00121064  RH  057%=      5-min Rain = 0
KHA3 200112Z 04008KT 01/M06 A303 RMK A01 T00131064  RH  057%=      5-min Rain = 0
KHA3 200113Z 04008KT 01/M07 A303 RMK A01 T00131065  RH  056%=      5-min Rain = 0
KHA3 200114Z 04008KT 01/M06 A303 RMK A01 T00141064  RH  056%=      5-min Rain = 0
KHA3 200115Z 04008KT 02/M06 A303 RMK A01 T00151064  RH  056%=      5-min Rain = 0
KHA3 200116Z 04008KT 02/M07 A303 RMK A01 T00151065  RH  056%=      5-min Rain = 0
KHA3 200117Z 04007KT 02/M07 A3031 RMK A01 T00151065  RH  055%=      5-min Rain = 0
KHA3 200118Z 04007KT 01/M07 A3031 RMK A01 T00141066  RH  055%=      5-min Rain = 0
KHA3 200119Z 04007KT 01/M07 A3031 RMK A01 T00131066  RH  055%=      5-min Rain = 0
KHA3 200120Z 04006KT 01/M07 A3031 RMK A01 T00141066  RH  055%=      5-min Rain = 0
KHA3 200121Z 04006KT 01/M07 A3031 RMK A01 T00141066  RH  055%=      5-min Rain = 0
KHA3 200122Z 04006KT 01/M07 A3031 RMK A01 T00141067  RH  055%=      5-min Rain = 0
KHA3 200123Z 04006KT 01/M07 A3031 RMK A01 T00141067  RH  055%=      5-min Rain = 0
KHA3 200124Z 04006KT 02/M07 A3031 RMK A01 T00151067  RH  055%=      5-min Rain = 0
KHA3 200125Z 04005KT 02/M07 A3031 RMK A01 T00151067  RH  054%=      5-min Rain = 0
KHA3 200126Z 04005KT 02/M07 A3031 RMK A01 T00151068  RH  054%=      5-min Rain = 0
KHA3 200127Z 04005KT 02/M07 A3031 RMK A01 T00151068  RH  054%=      5-min Rain = 0
KHA3 200128Z 04006KT 01/M07 A3031 RMK A01 T00141068  RH  054%=      5-min Rain = 0
KHA3 200129Z 04005KT 01/M07 A3031 RMK A01 T00141069  RH  054%=      5-min Rain = 0
KHA3 200130Z 04006KT 02/M07 A3031 RMK A01 T00151069  RH  054%=      5-min Rain = 0
KHA3 200131Z 04006KT 02/M07 A3031 RMK A01 T00151068  RH  054%=      5-min Rain = 0
KHA3 200132Z 04006KT 02/M07 A3031 RMK A01 T00151068  RH  054%=      5-min Rain = 0
KHA3 200133Z 04006KT 01/M07 A3031 RMK A01 T00141069  RH  054%=      5-min Rain = 0
KHA3 200134Z 04007KT 01/M07 A3031 RMK A01 T00121069  RH  055%=      5-min Rain = 0
KHA3 200135Z 04006KT 01/M07 A3031 RMK A01 T00111069  RH  055%=      5-min Rain = 0
KHA3 200136Z 04006KT 01/M07 A3031 RMK A01 T00101069  RH  055%=      5-min Rain = 0
KHA3 200137Z 04006KT 01/M07 A3031 RMK A01 T00091070  RH  056%=      5-min Rain = 0
KHA3 200138Z 04005KT 01/M07 A3031 RMK A01 T00091070  RH  056%=      5-min Rain = 0
KHA3 200139Z 04005KT 01/M07 A3031 RMK A01 T00081070  RH  056%=      5-min Rain = 0
KHA3 200140Z 04005KT 01/M07 A3031 RMK A01 T00081069  RH  056%=      5-min Rain = 0
KHA3 200141Z 05004KT 01/M07 A3031 RMK A01 T00081070  RH  056%=      5-min Rain = 0
KHA3 200142Z 05004KT 01/M07 A3031 RMK A01 T00081069  RH  056%=      5-min Rain = 0
KHA3 200143Z 05004KT 01/M07 A3031 RMK A01 T00081069  RH  056%=      5-min Rain = 0
KHA3 200144Z 06004KT 01/M07 A3031 RMK A01 T00081069  RH  056%=      5-min Rain = 0
KHA3 200145Z 06003KT 01/M07 A3031 RMK A01 T00081069  RH  056%=      5-min Rain = 0
KHA3 200146Z 07003KT 01/M07 A3031 RMK A01 T00091069  RH  056%=      5-min Rain = 0
KHA3 200147Z 08003KT 01/M07 A3031 RMK A01 T00091069  RH  056%=      5-min Rain = 0
KHA3 200148Z 09003KT 01/M07 A3031 RMK A01 T00101069  RH  056%=      5-min Rain = 0
KHA3 200149Z 08003KT 01/M07 A3031 RMK A01 T00101069  RH  055%=      5-min Rain = 0
KHA3 200150Z 08004KT 01/M07 A3031 RMK A01 T00111069  RH  055%=      5-min Rain = 0
KHA3 200151Z 08004KT 01/M07 A3031 RMK A01 T00121069  RH  055%=      5-min Rain = 0
KHA3 200152Z 08004KT 01/M07 A3031 RMK A01 T00121069  RH  055%=      5-min Rain = 0
KHA3 200153Z 08004KT 01/M07 A3031 RMK A01 T00121069  RH  055%=      5-min Rain = 0
KHA3 200154Z 09004KT 01/M07 A3031 RMK A01 T00121069  RH  055%=      5-min Rain = 0
KHA3 200155Z 09004KT 01/M07 A3031 RMK A01 T00121069  RH  055%=      5-min Rain = 0
KHA3 200156Z 09004KT 01/M07 A3031 RMK A01 T00111069  RH  055%=      5-min Rain = 0
KHA3 200157Z 09004KT 01/M07 A3031 RMK A01 T00111069  RH  055%=      5-min Rain = 0
KHA3 200158Z 08004KT 01/M07 A3031 RMK A01 T00101070  RH  055%=      5-min Rain = 0
KHA3 200159Z 08004KT 01/M07 A3031 RMK A01 T00111070  RH  055%=      5-min Rain = 0
KHA3 200200Z 08004KT 01/M07 A3031 RMK A01 T00121070  RH  054%=      5-min Rain = 0
KHA3 200201Z 08004KT 01/M07 A3031 RMK A01 T00121070  RH  054%=      5-min Rain = 0
KHA3 200202Z 09004KT 01/M07 A3031 RMK A01 T00121070  RH  054%=      5-min Rain = 0
KHA3 200203Z 09004KT 01/M07 A3031 RMK A01 T00121071  RH  054%=      5-min Rain = 0
KHA3 200204Z 08004KT 01/M07 A3031 RMK A01 T00121071  RH  054%=      5-min Rain = 0
KHA3 200205Z 08004KT 01/M07 A3031 RMK A01 T00121071  RH  054%=      5-min Rain = 0
KHA3 200206Z 07004KT 01/M07 A3031 RMK A01 T00111071  RH  054%=      5-min Rain = 0
KHA3 200207Z 07004KT 01/M07 A3031 RMK A01 T00121071  RH  054%=      5-min Rain = 0
KHA3 200208Z 07004KT 01/M07 A3031 RMK A01 T00111072  RH  054%=      5-min Rain = 0
KHA3 200209Z 07005KT 01/M07 A3031 RMK A01 T00111072  RH  054%=      5-min Rain = 0
KHA3 200210Z 06005KT 01/M07 A3031 RMK A01 T00121073  RH  053%=      5-min Rain = 0
KHA3 200211Z 06006KT 01/M07 A3031 RMK A01 T00121072  RH  053%=      5-min Rain = 0
KHA3 200212Z 06006KT 01/M07 A3031 RMK A01 T00121073  RH  053%=      5-min Rain = 0
KHA3 200213Z 06006KT 01/M07 A3031 RMK A01 T00121072  RH  054%=      5-min Rain = 0
KHA3 200214Z 06005KT 01/M07 A3031 RMK A01 T00111073  RH  054%=      5-min Rain = 0
KHA3 200215Z 06005KT 01/M07 A3031 RMK A01 T00101073  RH  054%=      5-min Rain = 0
KHA3 200216Z 06005KT 01/M07 A3031 RMK A01 T00101073  RH  054%=      5-min Rain = 0
KHA3 200217Z 07005KT 01/M07 A3031 RMK A01 T00091073  RH  054%=      5-min Rain = 0
KHA3 200218Z 07005KT 01/M07 A3031 RMK A01 T00091073  RH  054%=      5-min Rain = 0
KHA3 200219Z 06005KT 01/M07 A303 RMK A01 T00091072  RH  055%=      5-min Rain = 0
KHA3 200220Z 07006KT 01/M07 A303 RMK A01 T00081072  RH  055%=      5-min Rain = 0
KHA3 200221Z 07006KT 01/M07 A303 RMK A01 T00081072  RH  055%=      5-min Rain = 0
KHA3 200222Z 07005KT 01/M07 A303 RMK A01 T00071073  RH  055%=      5-min Rain = 0
KHA3 200223Z 07005KT 01/M07 A303 RMK A01 T00061073  RH  056%=      5-min Rain = 0
KHA3 200224Z 08006KT 01/M07 A303 RMK A01 T00051072  RH  056%=      5-min Rain = 0
KHA3 200225Z 08006KT 01/M07 A303 RMK A01 T00051072  RH  056%=      5-min Rain = 0
KHA3 200226Z 08006KT 01/M07 A303 RMK A01 T00051073  RH  056%=      5-min Rain = 0
KHA3 200227Z 08005KT 01/M07 A3031 RMK A01 T00051072  RH  056%=      5-min Rain = 0
KHA3 200228Z 08005KT 00/M07 A3031 RMK A01 T00041072  RH  056%=      5-min Rain = 0
KHA3 200229Z 09005KT 00/M07 A3031 RMK A01 T00041072  RH  057%=      5-min Rain = 0
KHA3 200230Z 10005KT 00/M07 A3031 RMK A01 T00041072  RH  057%=      5-min Rain = 0
KHA3 200231Z 10005KT 00/M07 A3031 RMK A01 T00041072  RH  057%=      5-min Rain = 0
KHA3 200232Z 10005KT 00/M07 A3031 RMK A01 T00041073  RH  057%=      5-min Rain = 0
KHA3 200233Z 10005KT 00/M07 A3031 RMK A01 T00041073  RH  056%=      5-min Rain = 0
KHA3 200234Z 10005KT 00/M07 A3031 RMK A01 T00041073  RH  056%=      5-min Rain = 0
KHA3 200235Z 10005KT 00/M07 A3031 RMK A01 T00041073  RH  056%=      5-min Rain = 0
KHA3 200236Z 10005KT 01/M07 A3031 RMK A01 T00051073  RH  056%=      5-min Rain = 0
KHA3 200237Z 09005KT 01/M07 A3031 RMK A01 T00051073  RH  056%=      5-min Rain = 0
KHA3 200238Z 09006KT 01/M07 A3031 RMK A01 T00061073  RH  056%=      5-min Rain = 0
KHA3 200239Z 09006KT 01/M07 A3031 RMK A01 T00051073  RH  055%=      5-min Rain = 0
KHA3 200240Z 08007KT 01/M07 A3031 RMK A01 T00051073  RH  056%=      5-min Rain = 0
KHA3 200241Z 08007KT 00/M07 A3031 RMK A01 T00041073  RH  056%=      5-min Rain = 0
KHA3 200242Z 08007KT 00/M07 A3031 RMK A01 T00031073  RH  057%=      5-min Rain = 0
KHA3 200243Z 08007KT 00/M07 A3031 RMK A01 T00031073  RH  057%=      5-min Rain = 0
KHA3 200244Z 07007KT 00/M07 A3031 RMK A01 T00021073  RH  057%=      5-min Rain = 0
KHA3 200245Z 07007KT 00/M07 A3031 RMK A01 T00021073  RH  057%=      5-min Rain = 0
KHA3 200246Z 07007KT 00/M07 A3031 RMK A01 T00011074  RH  057%=      5-min Rain = 0
KHA3 200247Z 07006KT 00/M07 A3031 RMK A01 T00011074  RH  057%=      5-min Rain = 0
KHA3 200248Z 07006KT 00/M08 A3031 RMK A01 T00011075  RH  057%=      5-min Rain = 0
KHA3 200249Z 07006KT 00/M07 A3031 RMK A01 T00011074  RH  057%=      5-min Rain = 0
KHA3 200250Z 07006KT 00/M07 A3031 RMK A01 T00011074  RH  057%=      5-min Rain = 0
KHA3 200251Z 07006KT 00/08 A3031 RMK A01 T00-00-75  RH  057%=      5-min Rain = 0
KHA3 200252Z 07006KT 00/07 A3031 RMK A01 T00-00-74  RH  058%=      5-min Rain = 0
KHA3 200253Z 07006KT 00/07 A3031 RMK A01 T00-00-74  RH  058%=      5-min Rain = 0
KHA3 200254Z 07005KT 00/07 A3032 RMK A01 T00000-74  RH  057%=      5-min Rain = 0
KHA3 200255Z 07005KT 00/07 A3032 RMK A01 T00000-74  RH  057%=      5-min Rain = 0
KHA3 200256Z 07006KT 00/07 A3032 RMK A01 T00000-74  RH  057%=      5-min Rain = 0
KHA3 200257Z 07005KT 00/M08 A3032 RMK A01 T00011075  RH  057%=      5-min Rain = 0
KHA3 200258Z 07005KT 00/M08 A3032 RMK A01 T00011075  RH  057%=      5-min Rain = 0
KHA3 200259Z 08005KT 00/M08 A3032 RMK A01 T00011076  RH  056%=      5-min Rain = 0
KHA3 200300Z 08005KT 00/M08 A3032 RMK A01 T00021075  RH  056%=      5-min Rain = 0
KHA3 200301Z 07005KT 00/M08 A3033 RMK A01 T00021075  RH  056%=      5-min Rain = 0
KHA3 200302Z 08005KT 00/M08 A3033 RMK A01 T00031076  RH  056%=      5-min Rain = 0
KHA3 200303Z 08005KT 00/M08 A3033 RMK A01 T00031076  RH  056%=      5-min Rain = 0
KHA3 200304Z 08005KT 00/M08 A3033 RMK A01 T00031076  RH  055%=      5-min Rain = 0
KHA3 200305Z 08005KT 00/M08 A3033 RMK A01 T00041077  RH  055%=      5-min Rain = 0
KHA3 200306Z 08004KT 00/M08 A3033 RMK A01 T00041077  RH  055%=      5-min Rain = 0
KHA3 200307Z 08004KT 00/M08 A3033 RMK A01 T00041077  RH  054%=      5-min Rain = 0
KHA3 200308Z 08003KT 01/M08 A3033 RMK A01 T00051078  RH  054%=      5-min Rain = 0
KHA3 200309Z 07003KT 01/M08 A3033 RMK A01 T00051078  RH  054%=      5-min Rain = 0
KHA3 200310Z 07003KT 01/M08 A3033 RMK A01 T00061078  RH  053%=      5-min Rain = 0
KHA3 200311Z 07003KT 01/M08 A3033 RMK A01 T00061078  RH  053%=      5-min Rain = 0
KHA3 200312Z 07004KT 01/M08 A3033 RMK A01 T00071079  RH  053%=      5-min Rain = 0
KHA3 200313Z 06004KT 01/M08 A3033 RMK A01 T00071079  RH  053%=      5-min Rain = 0
KHA3 200314Z 06005KT 01/M08 A3033 RMK A01 T00071079  RH  052%=      5-min Rain = 0
KHA3 200315Z 06005KT 01/M08 A3033 RMK A01 T00081079  RH  052%=      5-min Rain = 0
KHA3 200316Z 05005KT 01/M08 A3032 RMK A01 T00091079  RH  052%=      5-min Rain = 0
KHA3 200317Z 05005KT 01/M08 A3033 RMK A01 T00091080  RH  052%=      5-min Rain = 0
KHA3 200318Z 04005KT 01/M08 A3033 RMK A01 T00091079  RH  052%=      5-min Rain = 0
KHA3 200319Z 04005KT 01/M08 A3033 RMK A01 T00091080  RH  052%=      5-min Rain = 0
KHA3 200320Z 04005KT 01/M08 A3033 RMK A01 T00081080  RH  052%=      5-min Rain = 0
KHA3 200321Z 04005KT 01/M08 A3033 RMK A01 T00071080  RH  052%=      5-min Rain = 0
KHA3 200322Z 04006KT 01/M08 A3033 RMK A01 T00071079  RH  052%=      5-min Rain = 0
KHA3 200323Z 05006KT 01/M08 A3033 RMK A01 T00071079  RH  053%=      5-min Rain = 0
KHA3 200324Z 05006KT 01/M08 A3033 RMK A01 T00051079  RH  053%=      5-min Rain = 0
KHA3 200325Z 05006KT 00/M08 A3033 RMK A01 T00041079  RH  054%=      5-min Rain = 0
KHA3 200326Z 05006KT 00/M08 A3033 RMK A01 T00031078  RH  054%=      5-min Rain = 0
KHA3 200327Z 05006KT 00/M08 A3033 RMK A01 T00031078  RH  055%=      5-min Rain = 0
KHA3 200328Z 05005KT 00/M08 A3033 RMK A01 T00031078  RH  055%=      5-min Rain = 0
KHA3 200329Z 05005KT 00/M08 A3033 RMK A01 T00031077  RH  055%=      5-min Rain = 0
KHA3 200330Z 06005KT 00/M08 A3033 RMK A01 T00031077  RH  055%=      5-min Rain = 0
KHA3 200331Z 06005KT 00/M08 A3033 RMK A01 T00031077  RH  055%=      5-min Rain = 0
KHA3 200332Z 06005KT 00/M08 A3033 RMK A01 T00031077  RH  055%=      5-min Rain = 0
KHA3 200333Z 06005KT 00/M08 A3033 RMK A01 T00021077  RH  055%=      5-min Rain = 0
KHA3 200334Z 06005KT 00/M08 A3033 RMK A01 T00021077  RH  055%=      5-min Rain = 0
KHA3 200335Z 06004KT 00/M08 A3033 RMK A01 T00011078  RH  055%=      5-min Rain = 0
KHA3 200336Z 07004KT 00/M08 A3033 RMK A01 T00011078  RH  056%=      5-min Rain = 0
KHA3 200337Z 07005KT 00/08 A3033 RMK A01 T00000-78  RH  056%=      5-min Rain = 0
KHA3 200338Z 07005KT 00/08 A3033 RMK A01 T00000-78  RH  056%=      5-min Rain = 0
KHA3 200339Z 07005KT 00/08 A3033 RMK A01 T00000-78  RH  055%=      5-min Rain = 0
KHA3 200340Z 07005KT 00/08 A3033 RMK A01 T00000-78  RH  055%=      5-min Rain = 0
KHA3 200341Z 07005KT 00/08 A3033 RMK A01 T00000-78  RH  056%=      5-min Rain = 0
KHA3 200342Z 07005KT 00/08 A3033 RMK A01 T00-00-78  RH  056%=      5-min Rain = 0
KHA3 200343Z 07005KT M00/M08 A3033 RMK A01 T10011078  RH  056%=      5-min Rain = 0
KHA3 200344Z 06006KT 00/08 A3033 RMK A01 T00-00-78  RH  056%=      5-min Rain = 0
KHA3 200345Z 06006KT 00/08 A3033 RMK A01 T00-00-78  RH  056%=      5-min Rain = 0
KHA3 200346Z 06006KT M00/M08 A3033 RMK A01 T10011078  RH  056%=      5-min Rain = 0
KHA3 200347Z 06006KT M00/M08 A3033 RMK A01 T10011078  RH  056%=      5-min Rain = 0
KHA3 200348Z 06007KT M00/M08 A3033 RMK A01 T10021077  RH  057%=      5-min Rain = 0
KHA3 200349Z 06007KT M00/M08 A3033 RMK A01 T10031077  RH  057%=      5-min Rain = 0
KHA3 200350Z 06007KT M00/M08 A3033 RMK A01 T10041077  RH  058%=      5-min Rain = 0
KHA3 200351Z 06007KT M01/M08 A3033 RMK A01 T10051076  RH  059%=      5-min Rain = 0
KHA3 200352Z 06007KT M01/M08 A3033 RMK A01 T10061076  RH  059%=      5-min Rain = 0
KHA3 200353Z 06008KT M01/M08 A3033 RMK A01 T10061075  RH  060%=      5-min Rain = 0
KHA3 200354Z 06008KT M01/M08 A3032 RMK A01 T10061075  RH  060%=      5-min Rain = 0
KHA3 200355Z 06008KT M01/M08 A3032 RMK A01 T10061075  RH  060%=      5-min Rain = 0
KHA3 200356Z 06009KT M01/M07 A3032 RMK A01 T10061074  RH  060%=      5-min Rain = 0
KHA3 200357Z 06010KT M01/M07 A3032 RMK A01 T10071074  RH  060%=      5-min Rain = 0
KHA3 200358Z 06010KT M01/M07 A3032 RMK A01 T10061073  RH  061%=      5-min Rain = 0
KHA3 200359Z 07010KT M01/M07 A3032 RMK A01 T10061073  RH  061%=      5-min Rain = 0
KHA3 200400Z 07009KT M01/M07 A3032 RMK A01 T10061073  RH  061%=      5-min Rain = 0
KHA3 200401Z 07007KT M01/M07 A3032 RMK A01 T10061072  RH  061%=      5-min Rain = 0
KHA3 200402Z 07006KT M01/M07 A3033 RMK A01 T10061073  RH  061%=      5-min Rain = 0
KHA3 200403Z 08005KT M01/M07 A3033 RMK A01 T10071073  RH  061%=      5-min Rain = 0
KHA3 200404Z 09005KT M01/M07 A3033 RMK A01 T10071074  RH  061%=      5-min Rain = 0
KHA3 200405Z 08005KT M01/M07 A3033 RMK A01 T10071074  RH  061%=      5-min Rain = 0
KHA3 200406Z 09005KT M01/M07 A3033 RMK A01 T10071074  RH  060%=      5-min Rain = 0
KHA3 200407Z 09005KT M01/M07 A3033 RMK A01 T10061074  RH  060%=      5-min Rain = 0
KHA3 200408Z 09006KT M01/M07 A3033 RMK A01 T10051073  RH  060%=      5-min Rain = 0
KHA3 200409Z 09006KT M01/M07 A3032 RMK A01 T10051073  RH  060%=      5-min Rain = 0
KHA3 200410Z 08007KT M01/M07 A3032 RMK A01 T10061073  RH  061%=      5-min Rain = 0
KHA3 200411Z 08007KT M01/M07 A3032 RMK A01 T10081073  RH  061%=      5-min Rain = 0
KHA3 200412Z 08008KT M01/M07 A3032 RMK A01 T10091072  RH  062%=      5-min Rain = 0
KHA3 200413Z 08008KT M01/M07 A3032 RMK A01 T10101071  RH  063%=      5-min Rain = 0
KHA3 200414Z 07009KT M01/M07 A3032 RMK A01 T10111072  RH  063%=      5-min Rain = 0
KHA3 200415Z 07008KT M01/M07 A3032 RMK A01 T10111072  RH  063%=      5-min Rain = 0
KHA3 200416Z 07008KT M01/M07 A3032 RMK A01 T10111073  RH  063%=      5-min Rain = 0
KHA3 200417Z 07008KT M01/M07 A3032 RMK A01 T10101072  RH  063%=      5-min Rain = 0
KHA3 200418Z 07007KT M01/M07 A3032 RMK A01 T10091072  RH  062%=      5-min Rain = 0
KHA3 200419Z 07007KT M01/M07 A3032 RMK A01 T10091072  RH  062%=      5-min Rain = 0
KHA3 200420Z 07007KT M01/M07 A3032 RMK A01 T10091072  RH  062%=      5-min Rain = 0
KHA3 200421Z 07007KT M01/M07 A3032 RMK A01 T10091073  RH  062%=      5-min Rain = 0
KHA3 200422Z 06007KT M01/M07 A3032 RMK A01 T10081073  RH  062%=      5-min Rain = 0
KHA3 200423Z 07007KT M01/M07 A3032 RMK A01 T10081073  RH  061%=      5-min Rain = 0
KHA3 200424Z 07007KT M01/M07 A3032 RMK A01 T10081073  RH  061%=      5-min Rain = 0
KHA3 200425Z 07007KT M01/M07 A3032 RMK A01 T10081072  RH  062%=      5-min Rain = 0
KHA3 200426Z 08007KT M01/M07 A3032 RMK A01 T10091072  RH  062%=      5-min Rain = 0
KHA3 200427Z 08006KT M01/M07 A3032 RMK A01 T10091072  RH  062%=      5-min Rain = 0
KHA3 200428Z 08007KT M01/M07 A3032 RMK A01 T10101072  RH  063%=      5-min Rain = 0
KHA3 200429Z 08007KT M01/M07 A3032 RMK A01 T10101071  RH  063%=      5-min Rain = 0
KHA3 200430Z 08007KT M01/M07 A3032 RMK A01 T10111071  RH  064%=      5-min Rain = 0
KHA3 200431Z 08008KT M01/M07 A3032 RMK A01 T10121071  RH  064%=      5-min Rain = 0
KHA3 200432Z 08008KT M01/M07 A3032 RMK A01 T10121071  RH  064%=      5-min Rain = 0
KHA3 200433Z 07008KT M01/M07 A3032 RMK A01 T10121071  RH  064%=      5-min Rain = 0
KHA3 200434Z 07008KT M01/M07 A3032 RMK A01 T10121071  RH  064%=      5-min Rain = 0
KHA3 200435Z 07007KT M01/M07 A3032 RMK A01 T10121071  RH  064%=      5-min Rain = 0
KHA3 200436Z 07007KT M01/M07 A3032 RMK A01 T10121070  RH  065%=      5-min Rain = 0
KHA3 200437Z 07007KT M01/M07 A3032 RMK A01 T10121070  RH  065%=      5-min Rain = 0
KHA3 200438Z 07007KT M01/M07 A3032 RMK A01 T10131070  RH  065%=      5-min Rain = 0
KHA3 200439Z 07006KT M01/M07 A3032 RMK A01 T10131070  RH  065%=      5-min Rain = 0
KHA3 200440Z 07007KT M01/M07 A3032 RMK A01 T10131070  RH  065%=      5-min Rain = 0
KHA3 200441Z 07007KT M01/M07 A3032 RMK A01 T10131071  RH  065%=      5-min Rain = 0
KHA3 200442Z 07007KT M01/M07 A3032 RMK A01 T10121071  RH  065%=      5-min Rain = 0
KHA3 200443Z 07007KT M01/M07 A3032 RMK A01 T10121071  RH  064%=      5-min Rain = 0
KHA3 200444Z 07008KT M01/M07 A3033 RMK A01 T10121071  RH  064%=      5-min Rain = 0
KHA3 200445Z 08008KT M01/M07 A3033 RMK A01 T10121071  RH  064%=      5-min Rain = 0
KHA3 200446Z 08008KT M01/M07 A3032 RMK A01 T10131071  RH  064%=      5-min Rain = 0
KHA3 200447Z 08008KT M01/M07 A3032 RMK A01 T10121071  RH  065%=      5-min Rain = 0
KHA3 200448Z 08008KT M01/M07 A3032 RMK A01 T10131070  RH  065%=      5-min Rain = 0
KHA3 200449Z 08009KT M01/M07 A3032 RMK A01 T10131070  RH  065%=      5-min Rain = 0
KHA3 200450Z 08008KT M01/M07 A3032 RMK A01 T10131072  RH  064%=      5-min Rain = 0
KHA3 200451Z 08009KT M01/M07 A3032 RMK A01 T10111072  RH  063%=      5-min Rain = 0
KHA3 200452Z 08008KT M01/M07 A3032 RMK A01 T10101072  RH  063%=      5-min Rain = 0
KHA3 200453Z 09009KT M01/M07 A3032 RMK A01 T10101071  RH  063%=      5-min Rain = 0
KHA3 200454Z 08009KT M01/M07 A3031 RMK A01 T10101071  RH  063%=      5-min Rain = 0
KHA3 200455Z 09009KT M01/M07 A3031 RMK A01 T10101071  RH  063%=      5-min Rain = 0
KHA3 200456Z 09009KT M01/M07 A3031 RMK A01 T10101072  RH  063%=      5-min Rain = 0
KHA3 200457Z 09008KT M01/M07 A3031 RMK A01 T10091073  RH  062%=      5-min Rain = 0
KHA3 200458Z 09009KT M01/M07 A3031 RMK A01 T10091073  RH  062%=      5-min Rain = 0
KHA3 200459Z 09008KT M01/M07 A3031 RMK A01 T10081073  RH  061%=      5-min Rain = 0
KHA3 200500Z 09008KT M01/M07 A3031 RMK A01 T10081073  RH  061%=      5-min Rain = 0
KHA3 200501Z 09009KT M01/M07 A3031 RMK A01 T10081074  RH  061%=      5-min Rain = 0
KHA3 200502Z 09009KT M01/M07 A3031 RMK A01 T10081074  RH  061%=      5-min Rain = 0
KHA3 200503Z 09008KT M01/M08 A3031 RMK A01 T10071075  RH  060%=      5-min Rain = 0
KHA3 200504Z 09008KT M01/M07 A3031 RMK A01 T10071074  RH  061%=      5-min Rain = 0
KHA3 200505Z 09008KT M01/M07 A3031 RMK A01 T10081074  RH  061%=      5-min Rain = 0
KHA3 200506Z 09008KT M01/M07 A3031 RMK A01 T10081073  RH  061%=      5-min Rain = 0
KHA3 200507Z 09008KT M01/M07 A3031 RMK A01 T10091073  RH  062%=      5-min Rain = 0
KHA3 200508Z 10008KT M01/M07 A3031 RMK A01 T10091074  RH  062%=      5-min Rain = 0
KHA3 200509Z 10008KT M01/M07 A3031 RMK A01 T10091074  RH  061%=      5-min Rain = 0
KHA3 200510Z 10008KT M01/M08 A3031 RMK A01 T10101075  RH  061%=      5-min Rain = 0
KHA3 200511Z 10008KT M01/M08 A3032 RMK A01 T10091075  RH  061%=      5-min Rain = 0
KHA3 200512Z 11007KT M01/M08 A3032 RMK A01 T10091075  RH  061%=      5-min Rain = 0
KHA3 200513Z 11007KT M01/M07 A3032 RMK A01 T10091074  RH  061%=      5-min Rain = 0
KHA3 200514Z 10007KT M01/M07 A3032 RMK A01 T10101074  RH  062%=      5-min Rain = 0
KHA3 200515Z 10006KT M01/M08 A3033 RMK A01 T10101075  RH  061%=      5-min Rain = 0
KHA3 200516Z 10006KT M01/M08 A3033 RMK A01 T10101075  RH  061%=      5-min Rain = 0
KHA3 200517Z 10006KT M01/M08 A3033 RMK A01 T10101075  RH  062%=      5-min Rain = 0
KHA3 200518Z 10007KT M01/M08 A3033 RMK A01 T10111075  RH  062%=      5-min Rain = 0
KHA3 200519Z 10006KT M01/M08 A3033 RMK A01 T10101075  RH  061%=      5-min Rain = 0
KHA3 200520Z 10005KT M01/M08 A3033 RMK A01 T10111075  RH  062%=      5-min Rain = 0
KHA3 200521Z 11005KT M01/M08 A3034 RMK A01 T10111075  RH  062%=      5-min Rain = 0
KHA3 200522Z 11005KT M01/M08 A3034 RMK A01 T10121075  RH  062%=      5-min Rain = 0
KHA3 200523Z 11006KT M01/M08 A3034 RMK A01 T10121075  RH  063%=      5-min Rain = 0
KHA3 200524Z 11006KT M01/M07 A3034 RMK A01 T10131074  RH  063%=      5-min Rain = 0
KHA3 200525Z 11006KT M01/M07 A3034 RMK A01 T10131074  RH  063%=      5-min Rain = 0
KHA3 200526Z 11006KT M01/M07 A3034 RMK A01 T10131074  RH  063%=      5-min Rain = 0
KHA3 200527Z 11006KT M01/M07 A3034 RMK A01 T10131074  RH  063%=      5-min Rain = 0
KHA3 200528Z 12006KT M01/M07 A3034 RMK A01 T10131074  RH  063%=      5-min Rain = 0
KHA3 200529Z 12005KT M01/M08 A3034 RMK A01 T10141075  RH  063%=      5-min Rain = 0
KHA3 200530Z 12005KT M01/M08 A3034 RMK A01 T10141075  RH  063%=      5-min Rain = 0
KHA3 200531Z 12005KT M01/M08 A3034 RMK A01 T10141076  RH  063%=      5-min Rain = 0
KHA3 200532Z 12005KT M01/M08 A3034 RMK A01 T10131076  RH  062%=      5-min Rain = 0
KHA3 200533Z 12005KT M01/M08 A3034 RMK A01 T10121077  RH  062%=      5-min Rain = 0
KHA3 200534Z 11005KT M01/M08 A3034 RMK A01 T10121076  RH  062%=      5-min Rain = 0
KHA3 200535Z 11006KT M01/M08 A3034 RMK A01 T10131076  RH  062%=      5-min Rain = 0
KHA3 200536Z 10006KT M01/M08 A3034 RMK A01 T10141076  RH  063%=      5-min Rain = 0
KHA3 200537Z 10006KT M01/M08 A3034 RMK A01 T10141076  RH  063%=      5-min Rain = 0
KHA3 200538Z 10006KT M01/M08 A3034 RMK A01 T10141076  RH  063%=      5-min Rain = 0
KHA3 200539Z 09005KT M01/M08 A3034 RMK A01 T10141076  RH  063%=      5-min Rain = 0
KHA3 200540Z 09005KT M01/M08 A3034 RMK A01 T10141076  RH  063%=      5-min Rain = 0
KHA3 200541Z 09005KT M02/M08 A3035 RMK A01 T10151076  RH  063%=      5-min Rain = 0
KHA3 200542Z 09005KT M02/M08 A3035 RMK A01 T10161076  RH  064%=      5-min Rain = 0
KHA3 200543Z 09005KT M02/M08 A3035 RMK A01 T10161076  RH  064%=      5-min Rain = 0
KHA3 200544Z 09005KT M02/M08 A3035 RMK A01 T10161077  RH  063%=      5-min Rain = 0
KHA3 200545Z 10005KT M02/M08 A3035 RMK A01 T10161077  RH  063%=      5-min Rain = 0
KHA3 200546Z 11005KT M02/M08 A3035 RMK A01 T10161077  RH  063%=      5-min Rain = 0
KHA3 200547Z 11006KT M02/M08 A3035 RMK A01 T10161077  RH  063%=      5-min Rain = 0
KHA3 200548Z 11006KT M02/M08 A3035 RMK A01 T10171076  RH  064%=      5-min Rain = 0
KHA3 200549Z 10006KT M02/M08 A3035 RMK A01 T10181076  RH  064%=      5-min Rain = 0
KHA3 200550Z 10006KT M02/M08 A3035 RMK A01 T10191076  RH  065%=      5-min Rain = 0
KHA3 200551Z 10006KT M02/M08 A3035 RMK A01 T10191076  RH  065%=      5-min Rain = 0
KHA3 200552Z 10005KT M02/M08 A3035 RMK A01 T10191076  RH  065%=      5-min Rain = 0
KHA3 200553Z 10005KT M02/M08 A3035 RMK A01 T10191077  RH  064%=      5-min Rain = 0
KHA3 200554Z 11005KT M02/M08 A3035 RMK A01 T10181077  RH  064%=      5-min Rain = 0
KHA3 200555Z 11005KT M02/M08 A3034 RMK A01 T10181077  RH  064%=      5-min Rain = 0
KHA3 200556Z 11005KT M02/M08 A3034 RMK A01 T10191077  RH  064%=      5-min Rain = 0
KHA3 200557Z 11006KT M02/M08 A3034 RMK A01 T10191077  RH  064%=      5-min Rain = 0
KHA3 200558Z 11006KT M02/M08 A3034 RMK A01 T10201077  RH  065%=      5-min Rain = 0
KHA3 200559Z 11006KT M02/M08 A3034 RMK A01 T10211077  RH  065%=      5-min Rain = 0

Page generated in 0.1844 seconds.